<?xml version="1.0" encoding="UTF-8" standalone="no" ?>
<gpx xmlns="http://www.topografix.com/GPX/1/1" xmlns:xsi="http://www.w3.org/2001/XMLSchema-instance" xsi:schemaLocation="http://www.topografix.com/GPX/1/1 http://www.topografix.com/GPX/1/1/gpx.xsd" version="1.1" creator="VisuGPX - https://www.visugpx.com">
  <metadata>
    <name>sortie longue</name>
    <desc><![CDATA[macot bellentre valzan sous les fours montméry la cote d\'aime aime macot
]]></desc>
  </metadata>
  <trk>
    <name><![CDATA[macot bellentre]]></name>
    <trkseg>
      <trkpt lat="45.55464" lon="6.67722">
        <ele>777.40002441406</ele>
        <time>2012-04-29T07:48:47Z</time>
      </trkpt>
      <trkpt lat="45.55466" lon="6.67726">
        <ele>777</ele>
        <time>2012-04-29T07:48:50Z</time>
      </trkpt>
      <trkpt lat="45.55468" lon="6.67738">
        <ele>776.79998779297</ele>
        <time>2012-04-29T07:48:55Z</time>
      </trkpt>
      <trkpt lat="45.55472" lon="6.67747">
        <ele>776.20001220703</ele>
        <time>2012-04-29T07:48:59Z</time>
      </trkpt>
      <trkpt lat="45.55473" lon="6.67754">
        <ele>776</ele>
        <time>2012-04-29T07:49:02Z</time>
      </trkpt>
      <trkpt lat="45.55479" lon="6.67758">
        <ele>775</ele>
        <time>2012-04-29T07:49:05Z</time>
      </trkpt>
      <trkpt lat="45.55495" lon="6.67766">
        <ele>771.59997558594</ele>
        <time>2012-04-29T07:49:13Z</time>
      </trkpt>
      <trkpt lat="45.55501" lon="6.6779">
        <ele>770.79998779297</ele>
        <time>2012-04-29T07:49:21Z</time>
      </trkpt>
      <trkpt lat="45.55505" lon="6.6781">
        <ele>770.79998779297</ele>
        <time>2012-04-29T07:49:28Z</time>
      </trkpt>
      <trkpt lat="45.55505" lon="6.67816">
        <ele>771</ele>
        <time>2012-04-29T07:49:30Z</time>
      </trkpt>
      <trkpt lat="45.55508" lon="6.67829">
        <ele>770.79998779297</ele>
        <time>2012-04-29T07:49:35Z</time>
      </trkpt>
      <trkpt lat="45.5552" lon="6.67844">
        <ele>771</ele>
        <time>2012-04-29T07:49:43Z</time>
      </trkpt>
      <trkpt lat="45.55529" lon="6.67851">
        <ele>770.40002441406</ele>
        <time>2012-04-29T07:49:49Z</time>
      </trkpt>
      <trkpt lat="45.55534" lon="6.67853">
        <ele>770.20001220703</ele>
        <time>2012-04-29T07:49:53Z</time>
      </trkpt>
      <trkpt lat="45.55535" lon="6.67854">
        <ele>770</ele>
        <time>2012-04-29T07:49:55Z</time>
      </trkpt>
      <trkpt lat="45.55541" lon="6.67861">
        <ele>770</ele>
        <time>2012-04-29T07:50:01Z</time>
      </trkpt>
      <trkpt lat="45.55544" lon="6.67865">
        <ele>770.20001220703</ele>
        <time>2012-04-29T07:50:04Z</time>
      </trkpt>
      <trkpt lat="45.55552" lon="6.67875">
        <ele>770.20001220703</ele>
        <time>2012-04-29T07:50:10Z</time>
      </trkpt>
      <trkpt lat="45.55557" lon="6.67882">
        <ele>770.20001220703</ele>
        <time>2012-04-29T07:50:15Z</time>
      </trkpt>
      <trkpt lat="45.55576" lon="6.67896">
        <ele>769</ele>
        <time>2012-04-29T07:50:26Z</time>
      </trkpt>
      <trkpt lat="45.55598" lon="6.67912">
        <ele>768.59997558594</ele>
        <time>2012-04-29T07:50:38Z</time>
      </trkpt>
      <trkpt lat="45.55609" lon="6.67916">
        <ele>768.40002441406</ele>
        <time>2012-04-29T07:50:43Z</time>
      </trkpt>
      <trkpt lat="45.55617" lon="6.6792">
        <ele>768.40002441406</ele>
        <time>2012-04-29T07:50:47Z</time>
      </trkpt>
      <trkpt lat="45.55646" lon="6.67937">
        <ele>768.59997558594</ele>
        <time>2012-04-29T07:50:59Z</time>
      </trkpt>
      <trkpt lat="45.55663" lon="6.67955">
        <ele>769.40002441406</ele>
        <time>2012-04-29T07:51:10Z</time>
      </trkpt>
      <trkpt lat="45.55676" lon="6.67967">
        <ele>770</ele>
        <time>2012-04-29T07:51:17Z</time>
      </trkpt>
      <trkpt lat="45.55707" lon="6.67966">
        <ele>768.59997558594</ele>
        <time>2012-04-29T07:51:30Z</time>
      </trkpt>
      <trkpt lat="45.55724" lon="6.67975">
        <ele>768.79998779297</ele>
        <time>2012-04-29T07:51:38Z</time>
      </trkpt>
      <trkpt lat="45.55737" lon="6.67988">
        <ele>769.40002441406</ele>
        <time>2012-04-29T07:51:45Z</time>
      </trkpt>
      <trkpt lat="45.55758" lon="6.67999">
        <ele>769.20001220703</ele>
        <time>2012-04-29T07:51:55Z</time>
      </trkpt>
      <trkpt lat="45.55764" lon="6.68007">
        <ele>769.59997558594</ele>
        <time>2012-04-29T07:52:01Z</time>
      </trkpt>
      <trkpt lat="45.55765" lon="6.68012">
        <ele>770</ele>
        <time>2012-04-29T07:52:05Z</time>
      </trkpt>
      <trkpt lat="45.55765" lon="6.68024">
        <ele>771.40002441406</ele>
        <time>2012-04-29T07:52:10Z</time>
      </trkpt>
      <trkpt lat="45.55769" lon="6.68033">
        <ele>772</ele>
        <time>2012-04-29T07:52:14Z</time>
      </trkpt>
      <trkpt lat="45.55768" lon="6.68047">
        <ele>773.79998779297</ele>
        <time>2012-04-29T07:52:20Z</time>
      </trkpt>
      <trkpt lat="45.55766" lon="6.68056">
        <ele>774.79998779297</ele>
        <time>2012-04-29T07:52:24Z</time>
      </trkpt>
      <trkpt lat="45.55763" lon="6.68064">
        <ele>776</ele>
        <time>2012-04-29T07:52:28Z</time>
      </trkpt>
      <trkpt lat="45.55772" lon="6.68068">
        <ele>775.79998779297</ele>
        <time>2012-04-29T07:52:34Z</time>
      </trkpt>
      <trkpt lat="45.55781" lon="6.68057">
        <ele>773.79998779297</ele>
        <time>2012-04-29T07:52:39Z</time>
      </trkpt>
      <trkpt lat="45.55789" lon="6.68054">
        <ele>772.79998779297</ele>
        <time>2012-04-29T07:52:42Z</time>
      </trkpt>
      <trkpt lat="45.55804" lon="6.68052">
        <ele>771.59997558594</ele>
        <time>2012-04-29T07:52:48Z</time>
      </trkpt>
      <trkpt lat="45.5582" lon="6.68049">
        <ele>769.79998779297</ele>
        <time>2012-04-29T07:52:54Z</time>
      </trkpt>
      <trkpt lat="45.5583" lon="6.68047">
        <ele>768.79998779297</ele>
        <time>2012-04-29T07:52:58Z</time>
      </trkpt>
      <trkpt lat="45.55843" lon="6.68046">
        <ele>767.20001220703</ele>
        <time>2012-04-29T07:53:03Z</time>
      </trkpt>
      <trkpt lat="45.5585" lon="6.68045">
        <ele>766.20001220703</ele>
        <time>2012-04-29T07:53:06Z</time>
      </trkpt>
      <trkpt lat="45.55865" lon="6.68048">
        <ele>764.59997558594</ele>
        <time>2012-04-29T07:53:12Z</time>
      </trkpt>
      <trkpt lat="45.55874" lon="6.68046">
        <ele>763</ele>
        <time>2012-04-29T07:53:17Z</time>
      </trkpt>
      <trkpt lat="45.5588" lon="6.68037">
        <ele>761.40002441406</ele>
        <time>2012-04-29T07:53:21Z</time>
      </trkpt>
      <trkpt lat="45.5589" lon="6.68027">
        <ele>759</ele>
        <time>2012-04-29T07:53:26Z</time>
      </trkpt>
      <trkpt lat="45.55898" lon="6.68019">
        <ele>757.20001220703</ele>
        <time>2012-04-29T07:53:30Z</time>
      </trkpt>
      <trkpt lat="45.55905" lon="6.68009">
        <ele>755.40002441406</ele>
        <time>2012-04-29T07:53:34Z</time>
      </trkpt>
      <trkpt lat="45.55911" lon="6.67999">
        <ele>753.59997558594</ele>
        <time>2012-04-29T07:53:38Z</time>
      </trkpt>
      <trkpt lat="45.5592" lon="6.67998">
        <ele>752.20001220703</ele>
        <time>2012-04-29T07:53:42Z</time>
      </trkpt>
      <trkpt lat="45.55929" lon="6.68006">
        <ele>751.59997558594</ele>
        <time>2012-04-29T07:53:46Z</time>
      </trkpt>
      <trkpt lat="45.55938" lon="6.68014">
        <ele>751</ele>
        <time>2012-04-29T07:53:50Z</time>
      </trkpt>
      <trkpt lat="45.55954" lon="6.68022">
        <ele>749</ele>
        <time>2012-04-29T07:53:57Z</time>
      </trkpt>
      <trkpt lat="45.55967" lon="6.68027">
        <ele>747.40002441406</ele>
        <time>2012-04-29T07:54:02Z</time>
      </trkpt>
      <trkpt lat="45.55976" lon="6.68027">
        <ele>746</ele>
        <time>2012-04-29T07:54:05Z</time>
      </trkpt>
      <trkpt lat="45.55987" lon="6.6803">
        <ele>744.20001220703</ele>
        <time>2012-04-29T07:54:09Z</time>
      </trkpt>
      <trkpt lat="45.56004" lon="6.68039">
        <ele>742.20001220703</ele>
        <time>2012-04-29T07:54:16Z</time>
      </trkpt>
      <trkpt lat="45.56027" lon="6.68055">
        <ele>740.79998779297</ele>
        <time>2012-04-29T07:54:26Z</time>
      </trkpt>
      <trkpt lat="45.56036" lon="6.68067">
        <ele>740.59997558594</ele>
        <time>2012-04-29T07:54:31Z</time>
      </trkpt>
      <trkpt lat="45.56045" lon="6.68087">
        <ele>740.59997558594</ele>
        <time>2012-04-29T07:54:38Z</time>
      </trkpt>
      <trkpt lat="45.56053" lon="6.68116">
        <ele>740</ele>
        <time>2012-04-29T07:54:47Z</time>
      </trkpt>
      <trkpt lat="45.56068" lon="6.68134">
        <ele>738.20001220703</ele>
        <time>2012-04-29T07:54:54Z</time>
      </trkpt>
      <trkpt lat="45.56076" lon="6.68144">
        <ele>737.20001220703</ele>
        <time>2012-04-29T07:54:58Z</time>
      </trkpt>
      <trkpt lat="45.5609" lon="6.68172">
        <ele>735.20001220703</ele>
        <time>2012-04-29T07:55:07Z</time>
      </trkpt>
      <trkpt lat="45.56097" lon="6.68184">
        <ele>734.59997558594</ele>
        <time>2012-04-29T07:55:11Z</time>
      </trkpt>
      <trkpt lat="45.56103" lon="6.68193">
        <ele>734</ele>
        <time>2012-04-29T07:55:15Z</time>
      </trkpt>
      <trkpt lat="45.5611" lon="6.68194">
        <ele>733</ele>
        <time>2012-04-29T07:55:19Z</time>
      </trkpt>
      <trkpt lat="45.56117" lon="6.68185">
        <ele>731.59997558594</ele>
        <time>2012-04-29T07:55:23Z</time>
      </trkpt>
      <trkpt lat="45.5612" lon="6.6818">
        <ele>731</ele>
        <time>2012-04-29T07:55:25Z</time>
      </trkpt>
      <trkpt lat="45.56122" lon="6.68167">
        <ele>730</ele>
        <time>2012-04-29T07:55:29Z</time>
      </trkpt>
      <trkpt lat="45.56125" lon="6.68159">
        <ele>729.20001220703</ele>
        <time>2012-04-29T07:55:31Z</time>
      </trkpt>
      <trkpt lat="45.56137" lon="6.68148">
        <ele>727</ele>
        <time>2012-04-29T07:55:36Z</time>
      </trkpt>
      <trkpt lat="45.56149" lon="6.68136">
        <ele>724.20001220703</ele>
        <time>2012-04-29T07:55:42Z</time>
      </trkpt>
      <trkpt lat="45.56156" lon="6.68125">
        <ele>722.40002441406</ele>
        <time>2012-04-29T07:55:46Z</time>
      </trkpt>
      <trkpt lat="45.56164" lon="6.68117">
        <ele>720.59997558594</ele>
        <time>2012-04-29T07:55:50Z</time>
      </trkpt>
      <trkpt lat="45.56173" lon="6.68106">
        <ele>718.40002441406</ele>
        <time>2012-04-29T07:55:55Z</time>
      </trkpt>
      <trkpt lat="45.56181" lon="6.68095">
        <ele>716.59997558594</ele>
        <time>2012-04-29T07:56:00Z</time>
      </trkpt>
      <trkpt lat="45.56191" lon="6.68083">
        <ele>714.40002441406</ele>
        <time>2012-04-29T07:56:06Z</time>
      </trkpt>
      <trkpt lat="45.5619" lon="6.68076">
        <ele>714.40002441406</ele>
        <time>2012-04-29T07:56:08Z</time>
      </trkpt>
      <trkpt lat="45.5619" lon="6.68066">
        <ele>714</ele>
        <time>2012-04-29T07:56:11Z</time>
      </trkpt>
      <trkpt lat="45.56192" lon="6.68053">
        <ele>713.20001220703</ele>
        <time>2012-04-29T07:56:15Z</time>
      </trkpt>
      <trkpt lat="45.56192" lon="6.68046">
        <ele>713</ele>
        <time>2012-04-29T07:56:17Z</time>
      </trkpt>
      <trkpt lat="45.56193" lon="6.68039">
        <ele>712.79998779297</ele>
        <time>2012-04-29T07:56:19Z</time>
      </trkpt>
      <trkpt lat="45.56192" lon="6.68033">
        <ele>712.59997558594</ele>
        <time>2012-04-29T07:56:21Z</time>
      </trkpt>
      <trkpt lat="45.56193" lon="6.68014">
        <ele>711.59997558594</ele>
        <time>2012-04-29T07:56:26Z</time>
      </trkpt>
      <trkpt lat="45.56197" lon="6.67996">
        <ele>710.40002441406</ele>
        <time>2012-04-29T07:56:31Z</time>
      </trkpt>
      <trkpt lat="45.56202" lon="6.67979">
        <ele>709</ele>
        <time>2012-04-29T07:56:36Z</time>
      </trkpt>
      <trkpt lat="45.56206" lon="6.67971">
        <ele>708</ele>
        <time>2012-04-29T07:56:39Z</time>
      </trkpt>
      <trkpt lat="45.56213" lon="6.67962">
        <ele>706.20001220703</ele>
        <time>2012-04-29T07:56:43Z</time>
      </trkpt>
      <trkpt lat="45.56221" lon="6.67949">
        <ele>704.20001220703</ele>
        <time>2012-04-29T07:56:48Z</time>
      </trkpt>
      <trkpt lat="45.56228" lon="6.6794">
        <ele>702.59997558594</ele>
        <time>2012-04-29T07:56:52Z</time>
      </trkpt>
      <trkpt lat="45.56229" lon="6.6793">
        <ele>702</ele>
        <time>2012-04-29T07:57:04Z</time>
      </trkpt>
      <trkpt lat="45.56227" lon="6.67927">
        <ele>702</ele>
        <time>2012-04-29T07:57:12Z</time>
      </trkpt>
      <trkpt lat="45.56227" lon="6.67927">
        <ele>702.20001220703</ele>
        <time>2012-04-29T07:57:15Z</time>
      </trkpt>
      <trkpt lat="45.56228" lon="6.67926">
        <ele>701.79998779297</ele>
        <time>2012-04-29T07:57:25Z</time>
      </trkpt>
      <trkpt lat="45.56229" lon="6.67926">
        <ele>701.59997558594</ele>
        <time>2012-04-29T07:57:31Z</time>
      </trkpt>
      <trkpt lat="45.56236" lon="6.67923">
        <ele>700.20001220703</ele>
        <time>2012-04-29T07:57:44Z</time>
      </trkpt>
      <trkpt lat="45.56239" lon="6.6791">
        <ele>698.79998779297</ele>
        <time>2012-04-29T07:57:54Z</time>
      </trkpt>
      <trkpt lat="45.56237" lon="6.67901">
        <ele>698.59997558594</ele>
        <time>2012-04-29T07:57:58Z</time>
      </trkpt>
      <trkpt lat="45.56238" lon="6.67895">
        <ele>698</ele>
        <time>2012-04-29T07:58:00Z</time>
      </trkpt>
      <trkpt lat="45.56243" lon="6.67884">
        <ele>696.40002441406</ele>
        <time>2012-04-29T07:58:03Z</time>
      </trkpt>
      <trkpt lat="45.56248" lon="6.67873">
        <ele>694.79998779297</ele>
        <time>2012-04-29T07:58:07Z</time>
      </trkpt>
      <trkpt lat="45.56255" lon="6.67861">
        <ele>693.79998779297</ele>
        <time>2012-04-29T07:58:11Z</time>
      </trkpt>
      <trkpt lat="45.5626" lon="6.67853">
        <ele>693.59997558594</ele>
        <time>2012-04-29T07:58:14Z</time>
      </trkpt>
      <trkpt lat="45.56262" lon="6.67843">
        <ele>693.40002441406</ele>
        <time>2012-04-29T07:58:17Z</time>
      </trkpt>
      <trkpt lat="45.56267" lon="6.6783">
        <ele>693.20001220703</ele>
        <time>2012-04-29T07:58:21Z</time>
      </trkpt>
      <trkpt lat="45.56273" lon="6.67818">
        <ele>694</ele>
        <time>2012-04-29T07:58:26Z</time>
      </trkpt>
      <trkpt lat="45.56277" lon="6.67813">
        <ele>694.59997558594</ele>
        <time>2012-04-29T07:58:29Z</time>
      </trkpt>
      <trkpt lat="45.56282" lon="6.67815">
        <ele>695.20001220703</ele>
        <time>2012-04-29T07:58:33Z</time>
      </trkpt>
      <trkpt lat="45.56285" lon="6.67826">
        <ele>695</ele>
        <time>2012-04-29T07:58:38Z</time>
      </trkpt>
      <trkpt lat="45.56286" lon="6.67834">
        <ele>694.59997558594</ele>
        <time>2012-04-29T07:58:41Z</time>
      </trkpt>
      <trkpt lat="45.56288" lon="6.67849">
        <ele>695</ele>
        <time>2012-04-29T07:58:46Z</time>
      </trkpt>
      <trkpt lat="45.56288" lon="6.67867">
        <ele>695</ele>
        <time>2012-04-29T07:58:52Z</time>
      </trkpt>
      <trkpt lat="45.5629" lon="6.67887">
        <ele>695.40002441406</ele>
        <time>2012-04-29T07:59:00Z</time>
      </trkpt>
      <trkpt lat="45.56299" lon="6.67912">
        <ele>695.20001220703</ele>
        <time>2012-04-29T07:59:08Z</time>
      </trkpt>
      <trkpt lat="45.56308" lon="6.67933">
        <ele>695.20001220703</ele>
        <time>2012-04-29T07:59:15Z</time>
      </trkpt>
      <trkpt lat="45.56313" lon="6.67951">
        <ele>695.20001220703</ele>
        <time>2012-04-29T07:59:21Z</time>
      </trkpt>
      <trkpt lat="45.56321" lon="6.67973">
        <ele>694.79998779297</ele>
        <time>2012-04-29T07:59:28Z</time>
      </trkpt>
      <trkpt lat="45.56323" lon="6.67991">
        <ele>694.79998779297</ele>
        <time>2012-04-29T07:59:34Z</time>
      </trkpt>
      <trkpt lat="45.56328" lon="6.68019">
        <ele>694.79998779297</ele>
        <time>2012-04-29T07:59:42Z</time>
      </trkpt>
      <trkpt lat="45.5633" lon="6.68037">
        <ele>694.79998779297</ele>
        <time>2012-04-29T07:59:47Z</time>
      </trkpt>
      <trkpt lat="45.56342" lon="6.68069">
        <ele>696.79998779297</ele>
        <time>2012-04-29T07:59:57Z</time>
      </trkpt>
      <trkpt lat="45.56359" lon="6.68122">
        <ele>700.40002441406</ele>
        <time>2012-04-29T08:00:13Z</time>
      </trkpt>
      <trkpt lat="45.56371" lon="6.68162">
        <ele>701.59997558594</ele>
        <time>2012-04-29T08:00:27Z</time>
      </trkpt>
      <trkpt lat="45.56375" lon="6.68199">
        <ele>703</ele>
        <time>2012-04-29T08:00:38Z</time>
      </trkpt>
      <trkpt lat="45.56378" lon="6.68251">
        <ele>704.79998779297</ele>
        <time>2012-04-29T08:00:53Z</time>
      </trkpt>
      <trkpt lat="45.56368" lon="6.68289">
        <ele>703.79998779297</ele>
        <time>2012-04-29T08:01:05Z</time>
      </trkpt>
      <trkpt lat="45.5636" lon="6.68327">
        <ele>703.20001220703</ele>
        <time>2012-04-29T08:01:16Z</time>
      </trkpt>
      <trkpt lat="45.56363" lon="6.68428">
        <ele>703.59997558594</ele>
        <time>2012-04-29T08:01:42Z</time>
      </trkpt>
      <trkpt lat="45.56355" lon="6.6846">
        <ele>703.20001220703</ele>
        <time>2012-04-29T08:01:52Z</time>
      </trkpt>
      <trkpt lat="45.56337" lon="6.68483">
        <ele>699.79998779297</ele>
        <time>2012-04-29T08:02:03Z</time>
      </trkpt>
      <trkpt lat="45.56311" lon="6.68516">
        <ele>702.79998779297</ele>
        <time>2012-04-29T08:02:18Z</time>
      </trkpt>
      <trkpt lat="45.56278" lon="6.68595">
        <ele>706.79998779297</ele>
        <time>2012-04-29T08:02:43Z</time>
      </trkpt>
      <trkpt lat="45.56259" lon="6.68631">
        <ele>705.40002441406</ele>
        <time>2012-04-29T08:02:56Z</time>
      </trkpt>
      <trkpt lat="45.56243" lon="6.68663">
        <ele>705</ele>
        <time>2012-04-29T08:03:07Z</time>
      </trkpt>
      <trkpt lat="45.56227" lon="6.68702">
        <ele>708.59997558594</ele>
        <time>2012-04-29T08:03:20Z</time>
      </trkpt>
      <trkpt lat="45.5622" lon="6.68732">
        <ele>709.59997558594</ele>
        <time>2012-04-29T08:03:30Z</time>
      </trkpt>
      <trkpt lat="45.56208" lon="6.68796">
        <ele>710.40002441406</ele>
        <time>2012-04-29T08:03:49Z</time>
      </trkpt>
      <trkpt lat="45.56193" lon="6.68844">
        <ele>712.20001220703</ele>
        <time>2012-04-29T08:04:04Z</time>
      </trkpt>
      <trkpt lat="45.56197" lon="6.689">
        <ele>713.59997558594</ele>
        <time>2012-04-29T08:04:20Z</time>
      </trkpt>
      <trkpt lat="45.56204" lon="6.68948">
        <ele>714</ele>
        <time>2012-04-29T08:04:35Z</time>
      </trkpt>
      <trkpt lat="45.56214" lon="6.68991">
        <ele>713.40002441406</ele>
        <time>2012-04-29T08:04:47Z</time>
      </trkpt>
      <trkpt lat="45.56218" lon="6.69017">
        <ele>713.59997558594</ele>
        <time>2012-04-29T08:04:55Z</time>
      </trkpt>
      <trkpt lat="45.56224" lon="6.69059">
        <ele>714</ele>
        <time>2012-04-29T08:05:08Z</time>
      </trkpt>
      <trkpt lat="45.56256" lon="6.69119">
        <ele>704.79998779297</ele>
        <time>2012-04-29T08:05:28Z</time>
      </trkpt>
      <trkpt lat="45.56289" lon="6.69161">
        <ele>703.59997558594</ele>
        <time>2012-04-29T08:05:50Z</time>
      </trkpt>
      <trkpt lat="45.56298" lon="6.69166">
        <ele>702.79998779297</ele>
        <time>2012-04-29T08:06:03Z</time>
      </trkpt>
      <trkpt lat="45.56299" lon="6.69168">
        <ele>702.79998779297</ele>
        <time>2012-04-29T08:06:16Z</time>
      </trkpt>
      <trkpt lat="45.56294" lon="6.69176">
        <ele>703.79998779297</ele>
        <time>2012-04-29T08:06:30Z</time>
      </trkpt>
      <trkpt lat="45.56297" lon="6.69193">
        <ele>704.20001220703</ele>
        <time>2012-04-29T08:06:36Z</time>
      </trkpt>
      <trkpt lat="45.56312" lon="6.69244">
        <ele>703.59997558594</ele>
        <time>2012-04-29T08:06:49Z</time>
      </trkpt>
      <trkpt lat="45.56318" lon="6.69291">
        <ele>703.59997558594</ele>
        <time>2012-04-29T08:07:03Z</time>
      </trkpt>
      <trkpt lat="45.56318" lon="6.69362">
        <ele>706.20001220703</ele>
        <time>2012-04-29T08:07:21Z</time>
      </trkpt>
      <trkpt lat="45.56314" lon="6.69404">
        <ele>709.59997558594</ele>
        <time>2012-04-29T08:07:33Z</time>
      </trkpt>
      <trkpt lat="45.56337" lon="6.69477">
        <ele>703.59997558594</ele>
        <time>2012-04-29T08:07:55Z</time>
      </trkpt>
      <trkpt lat="45.56351" lon="6.69545">
        <ele>704.79998779297</ele>
        <time>2012-04-29T08:08:15Z</time>
      </trkpt>
      <trkpt lat="45.56354" lon="6.69613">
        <ele>706.40002441406</ele>
        <time>2012-04-29T08:08:35Z</time>
      </trkpt>
      <trkpt lat="45.56346" lon="6.6965">
        <ele>708.20001220703</ele>
        <time>2012-04-29T08:08:46Z</time>
      </trkpt>
      <trkpt lat="45.56336" lon="6.69691">
        <ele>709.40002441406</ele>
        <time>2012-04-29T08:08:59Z</time>
      </trkpt>
      <trkpt lat="45.56335" lon="6.69743">
        <ele>709</ele>
        <time>2012-04-29T08:09:14Z</time>
      </trkpt>
      <trkpt lat="45.56335" lon="6.69786">
        <ele>709.20001220703</ele>
        <time>2012-04-29T08:09:26Z</time>
      </trkpt>
      <trkpt lat="45.56337" lon="6.69845">
        <ele>710.20001220703</ele>
        <time>2012-04-29T08:09:43Z</time>
      </trkpt>
      <trkpt lat="45.56344" lon="6.69909">
        <ele>712</ele>
        <time>2012-04-29T08:10:01Z</time>
      </trkpt>
      <trkpt lat="45.56351" lon="6.69964">
        <ele>711.79998779297</ele>
        <time>2012-04-29T08:10:17Z</time>
      </trkpt>
      <trkpt lat="45.56352" lon="6.69998">
        <ele>712</ele>
        <time>2012-04-29T08:10:27Z</time>
      </trkpt>
      <trkpt lat="45.56363" lon="6.70065">
        <ele>712.40002441406</ele>
        <time>2012-04-29T08:10:46Z</time>
      </trkpt>
      <trkpt lat="45.56384" lon="6.70116">
        <ele>710.79998779297</ele>
        <time>2012-04-29T08:11:01Z</time>
      </trkpt>
      <trkpt lat="45.56396" lon="6.70199">
        <ele>711.20001220703</ele>
        <time>2012-04-29T08:11:24Z</time>
      </trkpt>
      <trkpt lat="45.56402" lon="6.7024">
        <ele>711.79998779297</ele>
        <time>2012-04-29T08:11:36Z</time>
      </trkpt>
      <trkpt lat="45.56415" lon="6.70262">
        <ele>709.79998779297</ele>
        <time>2012-04-29T08:11:45Z</time>
      </trkpt>
      <trkpt lat="45.56437" lon="6.70291">
        <ele>712</ele>
        <time>2012-04-29T08:11:57Z</time>
      </trkpt>
      <trkpt lat="45.56459" lon="6.70322">
        <ele>712.79998779297</ele>
        <time>2012-04-29T08:12:11Z</time>
      </trkpt>
      <trkpt lat="45.56481" lon="6.70356">
        <ele>713</ele>
        <time>2012-04-29T08:12:25Z</time>
      </trkpt>
      <trkpt lat="45.56512" lon="6.70398">
        <ele>713.59997558594</ele>
        <time>2012-04-29T08:12:43Z</time>
      </trkpt>
      <trkpt lat="45.5655" lon="6.70448">
        <ele>715.40002441406</ele>
        <time>2012-04-29T08:13:05Z</time>
      </trkpt>
      <trkpt lat="45.56606" lon="6.70485">
        <ele>715.79998779297</ele>
        <time>2012-04-29T08:13:30Z</time>
      </trkpt>
      <trkpt lat="45.56638" lon="6.7051">
        <ele>717</ele>
        <time>2012-04-29T08:13:46Z</time>
      </trkpt>
      <trkpt lat="45.56669" lon="6.70539">
        <ele>717.59997558594</ele>
        <time>2012-04-29T08:14:01Z</time>
      </trkpt>
      <trkpt lat="45.56682" lon="6.70572">
        <ele>720</ele>
        <time>2012-04-29T08:14:14Z</time>
      </trkpt>
      <trkpt lat="45.56692" lon="6.70615">
        <ele>721.59997558594</ele>
        <time>2012-04-29T08:14:26Z</time>
      </trkpt>
      <trkpt lat="45.56684" lon="6.70688">
        <ele>721.20001220703</ele>
        <time>2012-04-29T08:14:47Z</time>
      </trkpt>
      <trkpt lat="45.5666" lon="6.70727">
        <ele>719.20001220703</ele>
        <time>2012-04-29T08:15:02Z</time>
      </trkpt>
      <trkpt lat="45.56628" lon="6.70757">
        <ele>721.79998779297</ele>
        <time>2012-04-29T08:15:19Z</time>
      </trkpt>
      <trkpt lat="45.56584" lon="6.70811">
        <ele>717.40002441406</ele>
        <time>2012-04-29T08:15:42Z</time>
      </trkpt>
      <trkpt lat="45.56561" lon="6.70871">
        <ele>723.79998779297</ele>
        <time>2012-04-29T08:16:00Z</time>
      </trkpt>
      <trkpt lat="45.56551" lon="6.70924">
        <ele>728.59997558594</ele>
        <time>2012-04-29T08:16:15Z</time>
      </trkpt>
      <trkpt lat="45.56554" lon="6.71001">
        <ele>730.79998779297</ele>
        <time>2012-04-29T08:16:36Z</time>
      </trkpt>
      <trkpt lat="45.56569" lon="6.7108">
        <ele>726</ele>
        <time>2012-04-29T08:17:00Z</time>
      </trkpt>
      <trkpt lat="45.56577" lon="6.7113">
        <ele>721.59997558594</ele>
        <time>2012-04-29T08:17:15Z</time>
      </trkpt>
      <trkpt lat="45.56595" lon="6.71189">
        <ele>721.20001220703</ele>
        <time>2012-04-29T08:17:33Z</time>
      </trkpt>
      <trkpt lat="45.56614" lon="6.7123">
        <ele>725.20001220703</ele>
        <time>2012-04-29T08:17:47Z</time>
      </trkpt>
      <trkpt lat="45.56643" lon="6.71269">
        <ele>726</ele>
        <time>2012-04-29T08:18:04Z</time>
      </trkpt>
      <trkpt lat="45.5666" lon="6.71317">
        <ele>722.79998779297</ele>
        <time>2012-04-29T08:18:21Z</time>
      </trkpt>
      <trkpt lat="45.56653" lon="6.71354">
        <ele>723.20001220703</ele>
        <time>2012-04-29T08:18:34Z</time>
      </trkpt>
      <trkpt lat="45.56656" lon="6.71383">
        <ele>723.40002441406</ele>
        <time>2012-04-29T08:18:43Z</time>
      </trkpt>
      <trkpt lat="45.56651" lon="6.71402">
        <ele>725</ele>
        <time>2012-04-29T08:18:51Z</time>
      </trkpt>
      <trkpt lat="45.56655" lon="6.71442">
        <ele>725.79998779297</ele>
        <time>2012-04-29T08:19:03Z</time>
      </trkpt>
      <trkpt lat="45.56669" lon="6.71481">
        <ele>723.59997558594</ele>
        <time>2012-04-29T08:19:16Z</time>
      </trkpt>
      <trkpt lat="45.56681" lon="6.71506">
        <ele>725.20001220703</ele>
        <time>2012-04-29T08:19:27Z</time>
      </trkpt>
      <trkpt lat="45.567" lon="6.71492">
        <ele>726.40002441406</ele>
        <time>2012-04-29T08:19:37Z</time>
      </trkpt>
      <trkpt lat="45.56736" lon="6.71471">
        <ele>730</ele>
        <time>2012-04-29T08:19:54Z</time>
      </trkpt>
      <trkpt lat="45.56746" lon="6.7147">
        <ele>731</ele>
        <time>2012-04-29T08:20:03Z</time>
      </trkpt>
      <trkpt lat="45.56753" lon="6.71472">
        <ele>732.20001220703</ele>
        <time>2012-04-29T08:20:11Z</time>
      </trkpt>
      <trkpt lat="45.56757" lon="6.71469">
        <ele>733.59997558594</ele>
        <time>2012-04-29T08:20:18Z</time>
      </trkpt>
      <trkpt lat="45.56764" lon="6.71465">
        <ele>735.79998779297</ele>
        <time>2012-04-29T08:20:30Z</time>
      </trkpt>
      <trkpt lat="45.56772" lon="6.71474">
        <ele>737.59997558594</ele>
        <time>2012-04-29T08:20:41Z</time>
      </trkpt>
      <trkpt lat="45.56775" lon="6.71478">
        <ele>738.40002441406</ele>
        <time>2012-04-29T08:20:49Z</time>
      </trkpt>
      <trkpt lat="45.56783" lon="6.71463">
        <ele>741.40002441406</ele>
        <time>2012-04-29T08:21:03Z</time>
      </trkpt>
      <trkpt lat="45.56789" lon="6.71465">
        <ele>743.20001220703</ele>
        <time>2012-04-29T08:21:15Z</time>
      </trkpt>
      <trkpt lat="45.56792" lon="6.71471">
        <ele>743.59997558594</ele>
        <time>2012-04-29T08:21:21Z</time>
      </trkpt>
      <trkpt lat="45.56793" lon="6.71491">
        <ele>742.79998779297</ele>
        <time>2012-04-29T08:21:33Z</time>
      </trkpt>
      <trkpt lat="45.56798" lon="6.71548">
        <ele>739.59997558594</ele>
        <time>2012-04-29T08:21:51Z</time>
      </trkpt>
      <trkpt lat="45.56814" lon="6.71568">
        <ele>742.20001220703</ele>
        <time>2012-04-29T08:22:02Z</time>
      </trkpt>
      <trkpt lat="45.56841" lon="6.71587">
        <ele>747</ele>
        <time>2012-04-29T08:22:22Z</time>
      </trkpt>
      <trkpt lat="45.56857" lon="6.71601">
        <ele>747.40002441406</ele>
        <time>2012-04-29T08:22:33Z</time>
      </trkpt>
      <trkpt lat="45.56897" lon="6.7164">
        <ele>749.79998779297</ele>
        <time>2012-04-29T08:22:54Z</time>
      </trkpt>
      <trkpt lat="45.56897" lon="6.71639">
        <ele>750</ele>
        <time>2012-04-29T08:23:14Z</time>
      </trkpt>
      <trkpt lat="45.56906" lon="6.71646">
        <ele>751</ele>
        <time>2012-04-29T08:23:25Z</time>
      </trkpt>
      <trkpt lat="45.56926" lon="6.7166">
        <ele>753.40002441406</ele>
        <time>2012-04-29T08:23:46Z</time>
      </trkpt>
      <trkpt lat="45.56944" lon="6.71675">
        <ele>754</ele>
        <time>2012-04-29T08:23:57Z</time>
      </trkpt>
      <trkpt lat="45.56967" lon="6.71688">
        <ele>755.59997558594</ele>
        <time>2012-04-29T08:24:10Z</time>
      </trkpt>
      <trkpt lat="45.56972" lon="6.71686">
        <ele>757</ele>
        <time>2012-04-29T08:24:14Z</time>
      </trkpt>
      <trkpt lat="45.56976" lon="6.71675">
        <ele>760</ele>
        <time>2012-04-29T08:24:24Z</time>
      </trkpt>
      <trkpt lat="45.56983" lon="6.71654">
        <ele>764</ele>
        <time>2012-04-29T08:24:31Z</time>
      </trkpt>
      <trkpt lat="45.56983" lon="6.71625">
        <ele>766</ele>
        <time>2012-04-29T08:24:40Z</time>
      </trkpt>
      <trkpt lat="45.5698" lon="6.71593">
        <ele>768.20001220703</ele>
        <time>2012-04-29T08:24:50Z</time>
      </trkpt>
      <trkpt lat="45.5697" lon="6.71549">
        <ele>770</ele>
        <time>2012-04-29T08:25:05Z</time>
      </trkpt>
      <trkpt lat="45.56964" lon="6.71538">
        <ele>770</ele>
        <time>2012-04-29T08:25:18Z</time>
      </trkpt>
      <trkpt lat="45.56944" lon="6.71501">
        <ele>770.59997558594</ele>
        <time>2012-04-29T08:25:32Z</time>
      </trkpt>
      <trkpt lat="45.56943" lon="6.71487">
        <ele>771.40002441406</ele>
        <time>2012-04-29T08:25:41Z</time>
      </trkpt>
      <trkpt lat="45.5695" lon="6.71473">
        <ele>773</ele>
        <time>2012-04-29T08:25:49Z</time>
      </trkpt>
      <trkpt lat="45.56938" lon="6.71444">
        <ele>773.79998779297</ele>
        <time>2012-04-29T08:25:59Z</time>
      </trkpt>
      <trkpt lat="45.56922" lon="6.71411">
        <ele>774.59997558594</ele>
        <time>2012-04-29T08:26:12Z</time>
      </trkpt>
      <trkpt lat="45.5691" lon="6.71358">
        <ele>775.79998779297</ele>
        <time>2012-04-29T08:26:28Z</time>
      </trkpt>
      <trkpt lat="45.56902" lon="6.71312">
        <ele>775.20001220703</ele>
        <time>2012-04-29T08:26:43Z</time>
      </trkpt>
      <trkpt lat="45.5692" lon="6.7131">
        <ele>778.20001220703</ele>
        <time>2012-04-29T08:26:54Z</time>
      </trkpt>
      <trkpt lat="45.56939" lon="6.71319">
        <ele>780.20001220703</ele>
        <time>2012-04-29T08:27:04Z</time>
      </trkpt>
      <trkpt lat="45.56975" lon="6.71338">
        <ele>783.40002441406</ele>
        <time>2012-04-29T08:27:23Z</time>
      </trkpt>
      <trkpt lat="45.56999" lon="6.71352">
        <ele>784.59997558594</ele>
        <time>2012-04-29T08:27:36Z</time>
      </trkpt>
      <trkpt lat="45.57023" lon="6.71364">
        <ele>790.40002441406</ele>
        <time>2012-04-29T08:27:48Z</time>
      </trkpt>
      <trkpt lat="45.57051" lon="6.71365">
        <ele>798.20001220703</ele>
        <time>2012-04-29T08:28:05Z</time>
      </trkpt>
      <trkpt lat="45.57039" lon="6.71327">
        <ele>797</ele>
        <time>2012-04-29T08:28:20Z</time>
      </trkpt>
      <trkpt lat="45.57026" lon="6.7128">
        <ele>795.40002441406</ele>
        <time>2012-04-29T08:28:38Z</time>
      </trkpt>
      <trkpt lat="45.57018" lon="6.71249">
        <ele>795.20001220703</ele>
        <time>2012-04-29T08:28:49Z</time>
      </trkpt>
      <trkpt lat="45.57021" lon="6.71197">
        <ele>798.20001220703</ele>
        <time>2012-04-29T08:29:09Z</time>
      </trkpt>
      <trkpt lat="45.57038" lon="6.71172">
        <ele>803</ele>
        <time>2012-04-29T08:29:24Z</time>
      </trkpt>
      <trkpt lat="45.57044" lon="6.71165">
        <ele>804.59997558594</ele>
        <time>2012-04-29T08:29:32Z</time>
      </trkpt>
      <trkpt lat="45.57052" lon="6.71156">
        <ele>807.20001220703</ele>
        <time>2012-04-29T08:29:44Z</time>
      </trkpt>
      <trkpt lat="45.57053" lon="6.71152">
        <ele>807.79998779297</ele>
        <time>2012-04-29T08:30:06Z</time>
      </trkpt>
      <trkpt lat="45.57062" lon="6.7114">
        <ele>810.40002441406</ele>
        <time>2012-04-29T08:30:19Z</time>
      </trkpt>
      <trkpt lat="45.57077" lon="6.71111">
        <ele>815.20001220703</ele>
        <time>2012-04-29T08:30:31Z</time>
      </trkpt>
      <trkpt lat="45.57089" lon="6.71083">
        <ele>819.59997558594</ele>
        <time>2012-04-29T08:30:40Z</time>
      </trkpt>
      <trkpt lat="45.57089" lon="6.7107">
        <ele>820.40002441406</ele>
        <time>2012-04-29T08:30:50Z</time>
      </trkpt>
      <trkpt lat="45.57082" lon="6.71065">
        <ele>819.20001220703</ele>
        <time>2012-04-29T08:31:11Z</time>
      </trkpt>
      <trkpt lat="45.57066" lon="6.71068">
        <ele>816.59997558594</ele>
        <time>2012-04-29T08:31:23Z</time>
      </trkpt>
      <trkpt lat="45.57055" lon="6.71073">
        <ele>814.79998779297</ele>
        <time>2012-04-29T08:31:31Z</time>
      </trkpt>
      <trkpt lat="45.57056" lon="6.71068">
        <ele>815.20001220703</ele>
        <time>2012-04-29T08:31:40Z</time>
      </trkpt>
      <trkpt lat="45.57059" lon="6.71066">
        <ele>815.79998779297</ele>
        <time>2012-04-29T08:31:45Z</time>
      </trkpt>
      <trkpt lat="45.57067" lon="6.71049">
        <ele>818</ele>
        <time>2012-04-29T08:32:00Z</time>
      </trkpt>
      <trkpt lat="45.57077" lon="6.71041">
        <ele>820.20001220703</ele>
        <time>2012-04-29T08:32:11Z</time>
      </trkpt>
      <trkpt lat="45.5709" lon="6.7103">
        <ele>823.20001220703</ele>
        <time>2012-04-29T08:32:25Z</time>
      </trkpt>
      <trkpt lat="45.57101" lon="6.71006">
        <ele>827</ele>
        <time>2012-04-29T08:32:35Z</time>
      </trkpt>
      <trkpt lat="45.57102" lon="6.7098">
        <ele>829.20001220703</ele>
        <time>2012-04-29T08:32:44Z</time>
      </trkpt>
      <trkpt lat="45.57104" lon="6.70943">
        <ele>832.59997558594</ele>
        <time>2012-04-29T08:32:57Z</time>
      </trkpt>
      <trkpt lat="45.57103" lon="6.70932">
        <ele>833.20001220703</ele>
        <time>2012-04-29T08:33:07Z</time>
      </trkpt>
      <trkpt lat="45.571" lon="6.70892">
        <ele>836.79998779297</ele>
        <time>2012-04-29T08:33:26Z</time>
      </trkpt>
      <trkpt lat="45.57098" lon="6.70879">
        <ele>837.79998779297</ele>
        <time>2012-04-29T08:33:37Z</time>
      </trkpt>
      <trkpt lat="45.57095" lon="6.70868">
        <ele>838.20001220703</ele>
        <time>2012-04-29T08:33:45Z</time>
      </trkpt>
      <trkpt lat="45.57094" lon="6.70859">
        <ele>839</ele>
        <time>2012-04-29T08:33:51Z</time>
      </trkpt>
      <trkpt lat="45.57095" lon="6.70842">
        <ele>841.20001220703</ele>
        <time>2012-04-29T08:34:01Z</time>
      </trkpt>
      <trkpt lat="45.57098" lon="6.70827">
        <ele>844</ele>
        <time>2012-04-29T08:34:12Z</time>
      </trkpt>
      <trkpt lat="45.57103" lon="6.70818">
        <ele>846</ele>
        <time>2012-04-29T08:34:19Z</time>
      </trkpt>
      <trkpt lat="45.57108" lon="6.70808">
        <ele>848.20001220703</ele>
        <time>2012-04-29T08:34:28Z</time>
      </trkpt>
      <trkpt lat="45.57114" lon="6.70796">
        <ele>851.40002441406</ele>
        <time>2012-04-29T08:34:40Z</time>
      </trkpt>
      <trkpt lat="45.5712" lon="6.7079">
        <ele>854</ele>
        <time>2012-04-29T08:34:50Z</time>
      </trkpt>
      <trkpt lat="45.5713" lon="6.70782">
        <ele>858.20001220703</ele>
        <time>2012-04-29T08:35:06Z</time>
      </trkpt>
      <trkpt lat="45.57139" lon="6.70777">
        <ele>862.20001220703</ele>
        <time>2012-04-29T08:35:18Z</time>
      </trkpt>
      <trkpt lat="45.57143" lon="6.70777">
        <ele>863.79998779297</ele>
        <time>2012-04-29T08:35:26Z</time>
      </trkpt>
      <trkpt lat="45.5715" lon="6.70781">
        <ele>866.40002441406</ele>
        <time>2012-04-29T08:35:37Z</time>
      </trkpt>
      <trkpt lat="45.57157" lon="6.70783">
        <ele>869.20001220703</ele>
        <time>2012-04-29T08:35:48Z</time>
      </trkpt>
      <trkpt lat="45.57167" lon="6.70785">
        <ele>873</ele>
        <time>2012-04-29T08:35:59Z</time>
      </trkpt>
      <trkpt lat="45.57174" lon="6.70785">
        <ele>875.40002441406</ele>
        <time>2012-04-29T08:36:10Z</time>
      </trkpt>
      <trkpt lat="45.57186" lon="6.70785">
        <ele>879.20001220703</ele>
        <time>2012-04-29T08:36:23Z</time>
      </trkpt>
      <trkpt lat="45.57193" lon="6.7078">
        <ele>881.59997558594</ele>
        <time>2012-04-29T08:36:32Z</time>
      </trkpt>
      <trkpt lat="45.57193" lon="6.70767">
        <ele>882.79998779297</ele>
        <time>2012-04-29T08:36:43Z</time>
      </trkpt>
      <trkpt lat="45.57196" lon="6.70747">
        <ele>885.40002441406</ele>
        <time>2012-04-29T08:36:52Z</time>
      </trkpt>
      <trkpt lat="45.572" lon="6.70721">
        <ele>888.40002441406</ele>
        <time>2012-04-29T08:37:01Z</time>
      </trkpt>
      <trkpt lat="45.57199" lon="6.70675">
        <ele>890.59997558594</ele>
        <time>2012-04-29T08:37:18Z</time>
      </trkpt>
      <trkpt lat="45.572" lon="6.70657">
        <ele>892.20001220703</ele>
        <time>2012-04-29T08:37:28Z</time>
      </trkpt>
      <trkpt lat="45.572" lon="6.70638">
        <ele>893</ele>
        <time>2012-04-29T08:37:38Z</time>
      </trkpt>
      <trkpt lat="45.57203" lon="6.7063">
        <ele>895</ele>
        <time>2012-04-29T08:37:44Z</time>
      </trkpt>
      <trkpt lat="45.57214" lon="6.70639">
        <ele>899.20001220703</ele>
        <time>2012-04-29T08:38:00Z</time>
      </trkpt>
      <trkpt lat="45.57221" lon="6.70642">
        <ele>902.40002441406</ele>
        <time>2012-04-29T08:38:11Z</time>
      </trkpt>
      <trkpt lat="45.57232" lon="6.70649">
        <ele>906.79998779297</ele>
        <time>2012-04-29T08:38:23Z</time>
      </trkpt>
      <trkpt lat="45.57237" lon="6.70657">
        <ele>908.79998779297</ele>
        <time>2012-04-29T08:38:29Z</time>
      </trkpt>
      <trkpt lat="45.57243" lon="6.70665">
        <ele>911</ele>
        <time>2012-04-29T08:38:36Z</time>
      </trkpt>
      <trkpt lat="45.5725" lon="6.70673">
        <ele>913.20001220703</ele>
        <time>2012-04-29T08:38:42Z</time>
      </trkpt>
      <trkpt lat="45.57255" lon="6.7068">
        <ele>914.40002441406</ele>
        <time>2012-04-29T08:38:51Z</time>
      </trkpt>
      <trkpt lat="45.57264" lon="6.70683">
        <ele>918.20001220703</ele>
        <time>2012-04-29T08:39:06Z</time>
      </trkpt>
      <trkpt lat="45.57269" lon="6.70674">
        <ele>921.20001220703</ele>
        <time>2012-04-29T08:39:21Z</time>
      </trkpt>
      <trkpt lat="45.57276" lon="6.70658">
        <ele>925.79998779297</ele>
        <time>2012-04-29T08:39:34Z</time>
      </trkpt>
      <trkpt lat="45.57277" lon="6.7064">
        <ele>928</ele>
        <time>2012-04-29T08:39:44Z</time>
      </trkpt>
      <trkpt lat="45.57273" lon="6.70626">
        <ele>927.40002441406</ele>
        <time>2012-04-29T08:39:53Z</time>
      </trkpt>
      <trkpt lat="45.57269" lon="6.70607">
        <ele>926.59997558594</ele>
        <time>2012-04-29T08:40:03Z</time>
      </trkpt>
      <trkpt lat="45.57274" lon="6.70583">
        <ele>931.40002441406</ele>
        <time>2012-04-29T08:40:17Z</time>
      </trkpt>
      <trkpt lat="45.5728" lon="6.70571">
        <ele>936.40002441406</ele>
        <time>2012-04-29T08:40:25Z</time>
      </trkpt>
      <trkpt lat="45.5729" lon="6.70548">
        <ele>945.59997558594</ele>
        <time>2012-04-29T08:40:39Z</time>
      </trkpt>
      <trkpt lat="45.57292" lon="6.70539">
        <ele>948.20001220703</ele>
        <time>2012-04-29T08:40:47Z</time>
      </trkpt>
      <trkpt lat="45.57295" lon="6.70527">
        <ele>952.20001220703</ele>
        <time>2012-04-29T08:40:57Z</time>
      </trkpt>
      <trkpt lat="45.57295" lon="6.70509">
        <ele>954.59997558594</ele>
        <time>2012-04-29T08:41:09Z</time>
      </trkpt>
      <trkpt lat="45.57287" lon="6.70499">
        <ele>952.40002441406</ele>
        <time>2012-04-29T08:41:17Z</time>
      </trkpt>
      <trkpt lat="45.57281" lon="6.70489">
        <ele>951.79998779297</ele>
        <time>2012-04-29T08:41:26Z</time>
      </trkpt>
      <trkpt lat="45.57275" lon="6.70478">
        <ele>952</ele>
        <time>2012-04-29T08:41:35Z</time>
      </trkpt>
      <trkpt lat="45.5727" lon="6.70466">
        <ele>953.40002441406</ele>
        <time>2012-04-29T08:41:45Z</time>
      </trkpt>
      <trkpt lat="45.57268" lon="6.70459">
        <ele>954.59997558594</ele>
        <time>2012-04-29T08:41:54Z</time>
      </trkpt>
      <trkpt lat="45.57262" lon="6.70448">
        <ele>955</ele>
        <time>2012-04-29T08:42:04Z</time>
      </trkpt>
      <trkpt lat="45.57261" lon="6.70438">
        <ele>958.20001220703</ele>
        <time>2012-04-29T08:42:15Z</time>
      </trkpt>
      <trkpt lat="45.57255" lon="6.70426">
        <ele>959.20001220703</ele>
        <time>2012-04-29T08:42:26Z</time>
      </trkpt>
      <trkpt lat="45.57245" lon="6.70406">
        <ele>960.40002441406</ele>
        <time>2012-04-29T08:42:38Z</time>
      </trkpt>
      <trkpt lat="45.57228" lon="6.70371">
        <ele>960</ele>
        <time>2012-04-29T08:42:54Z</time>
      </trkpt>
      <trkpt lat="45.57225" lon="6.70342">
        <ele>966</ele>
        <time>2012-04-29T08:43:11Z</time>
      </trkpt>
      <trkpt lat="45.57227" lon="6.70326">
        <ele>970</ele>
        <time>2012-04-29T08:43:24Z</time>
      </trkpt>
      <trkpt lat="45.57225" lon="6.70313">
        <ele>970.79998779297</ele>
        <time>2012-04-29T08:43:36Z</time>
      </trkpt>
      <trkpt lat="45.57231" lon="6.70282">
        <ele>978.20001220703</ele>
        <time>2012-04-29T08:43:48Z</time>
      </trkpt>
      <trkpt lat="45.57231" lon="6.70234">
        <ele>984</ele>
        <time>2012-04-29T08:44:06Z</time>
      </trkpt>
      <trkpt lat="45.57224" lon="6.70193">
        <ele>984.79998779297</ele>
        <time>2012-04-29T08:44:22Z</time>
      </trkpt>
      <trkpt lat="45.5722" lon="6.70155">
        <ele>987</ele>
        <time>2012-04-29T08:44:37Z</time>
      </trkpt>
      <trkpt lat="45.57219" lon="6.70133">
        <ele>988</ele>
        <time>2012-04-29T08:44:46Z</time>
      </trkpt>
      <trkpt lat="45.57216" lon="6.70107">
        <ele>988.40002441406</ele>
        <time>2012-04-29T08:44:55Z</time>
      </trkpt>
      <trkpt lat="45.57216" lon="6.70087">
        <ele>990.20001220703</ele>
        <time>2012-04-29T08:45:04Z</time>
      </trkpt>
      <trkpt lat="45.57218" lon="6.70054">
        <ele>993.40002441406</ele>
        <time>2012-04-29T08:45:16Z</time>
      </trkpt>
      <trkpt lat="45.57223" lon="6.70022">
        <ele>997</ele>
        <time>2012-04-29T08:45:28Z</time>
      </trkpt>
      <trkpt lat="45.57226" lon="6.70005">
        <ele>999</ele>
        <time>2012-04-29T08:45:35Z</time>
      </trkpt>
      <trkpt lat="45.57234" lon="6.69984">
        <ele>1003.799987793</ele>
        <time>2012-04-29T08:45:48Z</time>
      </trkpt>
      <trkpt lat="45.57237" lon="6.69976">
        <ele>1005.5999755859</ele>
        <time>2012-04-29T08:45:58Z</time>
      </trkpt>
      <trkpt lat="45.57242" lon="6.69963">
        <ele>1008.5999755859</ele>
        <time>2012-04-29T08:46:07Z</time>
      </trkpt>
      <trkpt lat="45.57247" lon="6.69954">
        <ele>1011.4000244141</ele>
        <time>2012-04-29T08:46:17Z</time>
      </trkpt>
      <trkpt lat="45.5725" lon="6.69945">
        <ele>1013.4000244141</ele>
        <time>2012-04-29T08:46:26Z</time>
      </trkpt>
      <trkpt lat="45.57253" lon="6.69936">
        <ele>1015.200012207</ele>
        <time>2012-04-29T08:46:34Z</time>
      </trkpt>
      <trkpt lat="45.57262" lon="6.69932">
        <ele>1018.5999755859</ele>
        <time>2012-04-29T08:46:47Z</time>
      </trkpt>
      <trkpt lat="45.57262" lon="6.69914">
        <ele>1020.200012207</ele>
        <time>2012-04-29T08:46:54Z</time>
      </trkpt>
      <trkpt lat="45.57252" lon="6.69904">
        <ele>1017.5999755859</ele>
        <time>2012-04-29T08:47:05Z</time>
      </trkpt>
      <trkpt lat="45.57246" lon="6.69883">
        <ele>1017.4000244141</ele>
        <time>2012-04-29T08:47:16Z</time>
      </trkpt>
      <trkpt lat="45.57252" lon="6.69867">
        <ele>1020.799987793</ele>
        <time>2012-04-29T08:47:25Z</time>
      </trkpt>
      <trkpt lat="45.57259" lon="6.69847">
        <ele>1024.8000488281</ele>
        <time>2012-04-29T08:47:35Z</time>
      </trkpt>
      <trkpt lat="45.57265" lon="6.69839">
        <ele>1027.8000488281</ele>
        <time>2012-04-29T08:47:48Z</time>
      </trkpt>
      <trkpt lat="45.57278" lon="6.69848">
        <ele>1031</ele>
        <time>2012-04-29T08:47:58Z</time>
      </trkpt>
      <trkpt lat="45.57287" lon="6.69851">
        <ele>1034</ele>
        <time>2012-04-29T08:48:07Z</time>
      </trkpt>
      <trkpt lat="45.5731" lon="6.69858">
        <ele>1041.1999511719</ele>
        <time>2012-04-29T08:48:22Z</time>
      </trkpt>
      <trkpt lat="45.57322" lon="6.69862">
        <ele>1044.5999755859</ele>
        <time>2012-04-29T08:48:32Z</time>
      </trkpt>
      <trkpt lat="45.57319" lon="6.69853">
        <ele>1044.5999755859</ele>
        <time>2012-04-29T08:48:42Z</time>
      </trkpt>
      <trkpt lat="45.57309" lon="6.69844">
        <ele>1042</ele>
        <time>2012-04-29T08:48:51Z</time>
      </trkpt>
      <trkpt lat="45.57307" lon="6.69835">
        <ele>1042</ele>
        <time>2012-04-29T08:48:56Z</time>
      </trkpt>
      <trkpt lat="45.57313" lon="6.69813">
        <ele>1046.5999755859</ele>
        <time>2012-04-29T08:49:07Z</time>
      </trkpt>
      <trkpt lat="45.57321" lon="6.69787">
        <ele>1052.4000244141</ele>
        <time>2012-04-29T08:49:21Z</time>
      </trkpt>
      <trkpt lat="45.57322" lon="6.69776">
        <ele>1053.8000488281</ele>
        <time>2012-04-29T08:49:28Z</time>
      </trkpt>
      <trkpt lat="45.57312" lon="6.6976">
        <ele>1052.1999511719</ele>
        <time>2012-04-29T08:49:37Z</time>
      </trkpt>
      <trkpt lat="45.57308" lon="6.69751">
        <ele>1051.4000244141</ele>
        <time>2012-04-29T08:49:42Z</time>
      </trkpt>
      <trkpt lat="45.573" lon="6.69727">
        <ele>1052.5999755859</ele>
        <time>2012-04-29T08:49:56Z</time>
      </trkpt>
      <trkpt lat="45.57295" lon="6.69705">
        <ele>1054.8000488281</ele>
        <time>2012-04-29T08:50:14Z</time>
      </trkpt>
      <trkpt lat="45.57295" lon="6.69692">
        <ele>1056.8000488281</ele>
        <time>2012-04-29T08:50:21Z</time>
      </trkpt>
      <trkpt lat="45.57295" lon="6.69671">
        <ele>1060.5999755859</ele>
        <time>2012-04-29T08:50:32Z</time>
      </trkpt>
      <trkpt lat="45.57299" lon="6.69663">
        <ele>1063.4000244141</ele>
        <time>2012-04-29T08:50:44Z</time>
      </trkpt>
      <trkpt lat="45.57307" lon="6.69663">
        <ele>1066.4000244141</ele>
        <time>2012-04-29T08:50:58Z</time>
      </trkpt>
      <trkpt lat="45.57297" lon="6.6964">
        <ele>1068.4000244141</ele>
        <time>2012-04-29T08:51:09Z</time>
      </trkpt>
      <trkpt lat="45.57283" lon="6.69621">
        <ele>1068</ele>
        <time>2012-04-29T08:51:20Z</time>
      </trkpt>
      <trkpt lat="45.57273" lon="6.69602">
        <ele>1069</ele>
        <time>2012-04-29T08:51:31Z</time>
      </trkpt>
      <trkpt lat="45.57266" lon="6.69585">
        <ele>1071</ele>
        <time>2012-04-29T08:51:42Z</time>
      </trkpt>
      <trkpt lat="45.57259" lon="6.69571">
        <ele>1072.1999511719</ele>
        <time>2012-04-29T08:51:53Z</time>
      </trkpt>
      <trkpt lat="45.57256" lon="6.69559">
        <ele>1074.1999511719</ele>
        <time>2012-04-29T08:52:05Z</time>
      </trkpt>
      <trkpt lat="45.57253" lon="6.69548">
        <ele>1076.1999511719</ele>
        <time>2012-04-29T08:52:14Z</time>
      </trkpt>
      <trkpt lat="45.57248" lon="6.69531">
        <ele>1078.4000244141</ele>
        <time>2012-04-29T08:52:25Z</time>
      </trkpt>
      <trkpt lat="45.57245" lon="6.69516">
        <ele>1080.5999755859</ele>
        <time>2012-04-29T08:52:35Z</time>
      </trkpt>
      <trkpt lat="45.57242" lon="6.69505">
        <ele>1082.1999511719</ele>
        <time>2012-04-29T08:52:48Z</time>
      </trkpt>
      <trkpt lat="45.5724" lon="6.69487">
        <ele>1084.4000244141</ele>
        <time>2012-04-29T08:53:08Z</time>
      </trkpt>
      <trkpt lat="45.5724" lon="6.69473">
        <ele>1086</ele>
        <time>2012-04-29T08:53:16Z</time>
      </trkpt>
      <trkpt lat="45.57239" lon="6.69454">
        <ele>1088.5999755859</ele>
        <time>2012-04-29T08:53:25Z</time>
      </trkpt>
      <trkpt lat="45.57237" lon="6.69436">
        <ele>1090.1999511719</ele>
        <time>2012-04-29T08:53:36Z</time>
      </trkpt>
      <trkpt lat="45.57238" lon="6.69422">
        <ele>1093</ele>
        <time>2012-04-29T08:53:45Z</time>
      </trkpt>
      <trkpt lat="45.5724" lon="6.69411">
        <ele>1095</ele>
        <time>2012-04-29T08:53:51Z</time>
      </trkpt>
      <trkpt lat="45.57239" lon="6.69404">
        <ele>1096</ele>
        <time>2012-04-29T08:53:57Z</time>
      </trkpt>
      <trkpt lat="45.57239" lon="6.69391">
        <ele>1097.5999755859</ele>
        <time>2012-04-29T08:54:03Z</time>
      </trkpt>
      <trkpt lat="45.5724" lon="6.69366">
        <ele>1100.8000488281</ele>
        <time>2012-04-29T08:54:13Z</time>
      </trkpt>
      <trkpt lat="45.57244" lon="6.69345">
        <ele>1105.1999511719</ele>
        <time>2012-04-29T08:54:23Z</time>
      </trkpt>
      <trkpt lat="45.57249" lon="6.69319">
        <ele>1110</ele>
        <time>2012-04-29T08:54:35Z</time>
      </trkpt>
      <trkpt lat="45.57251" lon="6.69311">
        <ele>1111.1999511719</ele>
        <time>2012-04-29T08:54:43Z</time>
      </trkpt>
      <trkpt lat="45.57255" lon="6.69297">
        <ele>1113.5999755859</ele>
        <time>2012-04-29T08:55:02Z</time>
      </trkpt>
      <trkpt lat="45.57263" lon="6.69289">
        <ele>1117</ele>
        <time>2012-04-29T08:55:10Z</time>
      </trkpt>
      <trkpt lat="45.57268" lon="6.69281">
        <ele>1119.1999511719</ele>
        <time>2012-04-29T08:55:20Z</time>
      </trkpt>
      <trkpt lat="45.5728" lon="6.69285">
        <ele>1122.8000488281</ele>
        <time>2012-04-29T08:55:38Z</time>
      </trkpt>
      <trkpt lat="45.57286" lon="6.69289">
        <ele>1124.5999755859</ele>
        <time>2012-04-29T08:55:49Z</time>
      </trkpt>
      <trkpt lat="45.57296" lon="6.69304">
        <ele>1126.5999755859</ele>
        <time>2012-04-29T08:56:03Z</time>
      </trkpt>
      <trkpt lat="45.57308" lon="6.6932">
        <ele>1129.1999511719</ele>
        <time>2012-04-29T08:56:17Z</time>
      </trkpt>
      <trkpt lat="45.57321" lon="6.69322">
        <ele>1133</ele>
        <time>2012-04-29T08:56:29Z</time>
      </trkpt>
      <trkpt lat="45.57328" lon="6.69323">
        <ele>1135.1999511719</ele>
        <time>2012-04-29T08:56:37Z</time>
      </trkpt>
      <trkpt lat="45.57339" lon="6.69325">
        <ele>1138.5999755859</ele>
        <time>2012-04-29T08:56:47Z</time>
      </trkpt>
      <trkpt lat="45.57343" lon="6.69326">
        <ele>1139.4000244141</ele>
        <time>2012-04-29T08:56:57Z</time>
      </trkpt>
      <trkpt lat="45.57346" lon="6.69324">
        <ele>1140.4000244141</ele>
        <time>2012-04-29T08:57:15Z</time>
      </trkpt>
      <trkpt lat="45.57347" lon="6.69326">
        <ele>1140.8000488281</ele>
        <time>2012-04-29T08:57:35Z</time>
      </trkpt>
      <trkpt lat="45.57356" lon="6.69337">
        <ele>1142.5999755859</ele>
        <time>2012-04-29T08:57:45Z</time>
      </trkpt>
      <trkpt lat="45.57362" lon="6.69353">
        <ele>1143.5999755859</ele>
        <time>2012-04-29T08:57:55Z</time>
      </trkpt>
      <trkpt lat="45.57372" lon="6.69361">
        <ele>1146.5999755859</ele>
        <time>2012-04-29T08:58:03Z</time>
      </trkpt>
      <trkpt lat="45.57384" lon="6.69365">
        <ele>1150.1999511719</ele>
        <time>2012-04-29T08:58:11Z</time>
      </trkpt>
      <trkpt lat="45.57393" lon="6.69361">
        <ele>1153.1999511719</ele>
        <time>2012-04-29T08:58:18Z</time>
      </trkpt>
      <trkpt lat="45.57396" lon="6.69339">
        <ele>1154.5999755859</ele>
        <time>2012-04-29T08:58:29Z</time>
      </trkpt>
      <trkpt lat="45.574" lon="6.69315">
        <ele>1156.1999511719</ele>
        <time>2012-04-29T08:58:41Z</time>
      </trkpt>
      <trkpt lat="45.57406" lon="6.69305">
        <ele>1157.8000488281</ele>
        <time>2012-04-29T08:58:58Z</time>
      </trkpt>
      <trkpt lat="45.57422" lon="6.69308">
        <ele>1162.1999511719</ele>
        <time>2012-04-29T08:59:09Z</time>
      </trkpt>
      <trkpt lat="45.57423" lon="6.69317">
        <ele>1162.5999755859</ele>
        <time>2012-04-29T08:59:17Z</time>
      </trkpt>
      <trkpt lat="45.57427" lon="6.69325">
        <ele>1164</ele>
        <time>2012-04-29T08:59:22Z</time>
      </trkpt>
      <trkpt lat="45.57435" lon="6.69338">
        <ele>1166.4000244141</ele>
        <time>2012-04-29T08:59:31Z</time>
      </trkpt>
      <trkpt lat="45.57445" lon="6.69359">
        <ele>1168.8000488281</ele>
        <time>2012-04-29T08:59:43Z</time>
      </trkpt>
      <trkpt lat="45.57455" lon="6.69361">
        <ele>1171.5999755859</ele>
        <time>2012-04-29T08:59:51Z</time>
      </trkpt>
      <trkpt lat="45.57462" lon="6.69365">
        <ele>1173.4000244141</ele>
        <time>2012-04-29T08:59:58Z</time>
      </trkpt>
      <trkpt lat="45.57475" lon="6.69364">
        <ele>1177</ele>
        <time>2012-04-29T09:00:08Z</time>
      </trkpt>
      <trkpt lat="45.57482" lon="6.69364">
        <ele>1179</ele>
        <time>2012-04-29T09:00:17Z</time>
      </trkpt>
      <trkpt lat="45.57494" lon="6.69364">
        <ele>1182.4000244141</ele>
        <time>2012-04-29T09:00:26Z</time>
      </trkpt>
      <trkpt lat="45.57503" lon="6.69366">
        <ele>1184.8000488281</ele>
        <time>2012-04-29T09:00:35Z</time>
      </trkpt>
      <trkpt lat="45.57518" lon="6.69366">
        <ele>1187.5999755859</ele>
        <time>2012-04-29T09:00:47Z</time>
      </trkpt>
      <trkpt lat="45.57533" lon="6.69368">
        <ele>1190.5999755859</ele>
        <time>2012-04-29T09:00:59Z</time>
      </trkpt>
      <trkpt lat="45.57546" lon="6.69366">
        <ele>1193.4000244141</ele>
        <time>2012-04-29T09:01:11Z</time>
      </trkpt>
      <trkpt lat="45.57557" lon="6.69362">
        <ele>1195.5999755859</ele>
        <time>2012-04-29T09:01:26Z</time>
      </trkpt>
      <trkpt lat="45.57567" lon="6.69357">
        <ele>1197.8000488281</ele>
        <time>2012-04-29T09:01:46Z</time>
      </trkpt>
      <trkpt lat="45.57576" lon="6.69354">
        <ele>1199.5999755859</ele>
        <time>2012-04-29T09:01:55Z</time>
      </trkpt>
      <trkpt lat="45.5759" lon="6.69353">
        <ele>1202.8000488281</ele>
        <time>2012-04-29T09:02:08Z</time>
      </trkpt>
      <trkpt lat="45.57596" lon="6.69351">
        <ele>1204</ele>
        <time>2012-04-29T09:02:14Z</time>
      </trkpt>
      <trkpt lat="45.57604" lon="6.69351">
        <ele>1206</ele>
        <time>2012-04-29T09:02:26Z</time>
      </trkpt>
      <trkpt lat="45.57625" lon="6.69342">
        <ele>1211.1999511719</ele>
        <time>2012-04-29T09:02:39Z</time>
      </trkpt>
      <trkpt lat="45.57636" lon="6.69327">
        <ele>1213.4000244141</ele>
        <time>2012-04-29T09:02:48Z</time>
      </trkpt>
      <trkpt lat="45.57642" lon="6.6931">
        <ele>1214</ele>
        <time>2012-04-29T09:02:56Z</time>
      </trkpt>
      <trkpt lat="45.57646" lon="6.693">
        <ele>1214.4000244141</ele>
        <time>2012-04-29T09:03:02Z</time>
      </trkpt>
      <trkpt lat="45.57658" lon="6.6929">
        <ele>1217</ele>
        <time>2012-04-29T09:03:11Z</time>
      </trkpt>
      <trkpt lat="45.57667" lon="6.69286">
        <ele>1218.8000488281</ele>
        <time>2012-04-29T09:03:17Z</time>
      </trkpt>
      <trkpt lat="45.57675" lon="6.69278">
        <ele>1220.1999511719</ele>
        <time>2012-04-29T09:03:30Z</time>
      </trkpt>
      <trkpt lat="45.57676" lon="6.69277">
        <ele>1220.4000244141</ele>
        <time>2012-04-29T09:03:46Z</time>
      </trkpt>
      <trkpt lat="45.57678" lon="6.69278">
        <ele>1220.8000488281</ele>
        <time>2012-04-29T09:04:10Z</time>
      </trkpt>
      <trkpt lat="45.57679" lon="6.69278">
        <ele>1221</ele>
        <time>2012-04-29T09:04:34Z</time>
      </trkpt>
      <trkpt lat="45.57689" lon="6.69272">
        <ele>1222.8000488281</ele>
        <time>2012-04-29T09:04:47Z</time>
      </trkpt>
      <trkpt lat="45.577" lon="6.69267">
        <ele>1225</ele>
        <time>2012-04-29T09:04:58Z</time>
      </trkpt>
      <trkpt lat="45.57711" lon="6.69269">
        <ele>1227.1999511719</ele>
        <time>2012-04-29T09:05:05Z</time>
      </trkpt>
      <trkpt lat="45.57721" lon="6.69269">
        <ele>1229.5999755859</ele>
        <time>2012-04-29T09:05:13Z</time>
      </trkpt>
      <trkpt lat="45.57731" lon="6.69266">
        <ele>1231.1999511719</ele>
        <time>2012-04-29T09:05:20Z</time>
      </trkpt>
      <trkpt lat="45.57739" lon="6.69271">
        <ele>1233.4000244141</ele>
        <time>2012-04-29T09:05:30Z</time>
      </trkpt>
      <trkpt lat="45.57747" lon="6.69274">
        <ele>1235.4000244141</ele>
        <time>2012-04-29T09:05:37Z</time>
      </trkpt>
      <trkpt lat="45.57758" lon="6.69277">
        <ele>1238</ele>
        <time>2012-04-29T09:05:46Z</time>
      </trkpt>
      <trkpt lat="45.57767" lon="6.69277">
        <ele>1240</ele>
        <time>2012-04-29T09:05:55Z</time>
      </trkpt>
      <trkpt lat="45.57777" lon="6.6928">
        <ele>1242.5999755859</ele>
        <time>2012-04-29T09:06:03Z</time>
      </trkpt>
      <trkpt lat="45.57782" lon="6.69284">
        <ele>1243.8000488281</ele>
        <time>2012-04-29T09:06:20Z</time>
      </trkpt>
      <trkpt lat="45.57787" lon="6.69286">
        <ele>1245.1999511719</ele>
        <time>2012-04-29T09:06:39Z</time>
      </trkpt>
      <trkpt lat="45.57796" lon="6.69291">
        <ele>1247.5999755859</ele>
        <time>2012-04-29T09:06:46Z</time>
      </trkpt>
      <trkpt lat="45.57813" lon="6.69293">
        <ele>1251.4000244141</ele>
        <time>2012-04-29T09:06:58Z</time>
      </trkpt>
      <trkpt lat="45.57828" lon="6.69283">
        <ele>1254.1999511719</ele>
        <time>2012-04-29T09:07:08Z</time>
      </trkpt>
      <trkpt lat="45.57834" lon="6.69273">
        <ele>1254.8000488281</ele>
        <time>2012-04-29T09:07:14Z</time>
      </trkpt>
      <trkpt lat="45.57846" lon="6.69251">
        <ele>1257</ele>
        <time>2012-04-29T09:07:33Z</time>
      </trkpt>
      <trkpt lat="45.57856" lon="6.69233">
        <ele>1259</ele>
        <time>2012-04-29T09:07:42Z</time>
      </trkpt>
      <trkpt lat="45.57862" lon="6.69222">
        <ele>1260.5999755859</ele>
        <time>2012-04-29T09:07:49Z</time>
      </trkpt>
      <trkpt lat="45.57868" lon="6.69213">
        <ele>1262</ele>
        <time>2012-04-29T09:07:58Z</time>
      </trkpt>
      <trkpt lat="45.57871" lon="6.69206">
        <ele>1262.8000488281</ele>
        <time>2012-04-29T09:08:04Z</time>
      </trkpt>
      <trkpt lat="45.57877" lon="6.69192">
        <ele>1264.1999511719</ele>
        <time>2012-04-29T09:08:16Z</time>
      </trkpt>
      <trkpt lat="45.57886" lon="6.69179">
        <ele>1267.4000244141</ele>
        <time>2012-04-29T09:08:29Z</time>
      </trkpt>
      <trkpt lat="45.57892" lon="6.69162">
        <ele>1269</ele>
        <time>2012-04-29T09:08:38Z</time>
      </trkpt>
      <trkpt lat="45.57893" lon="6.6914">
        <ele>1269.1999511719</ele>
        <time>2012-04-29T09:08:48Z</time>
      </trkpt>
      <trkpt lat="45.579" lon="6.69107">
        <ele>1271.1999511719</ele>
        <time>2012-04-29T09:09:01Z</time>
      </trkpt>
      <trkpt lat="45.57906" lon="6.69096">
        <ele>1273</ele>
        <time>2012-04-29T09:09:07Z</time>
      </trkpt>
      <trkpt lat="45.57916" lon="6.69084">
        <ele>1277</ele>
        <time>2012-04-29T09:09:18Z</time>
      </trkpt>
      <trkpt lat="45.57921" lon="6.6908">
        <ele>1279</ele>
        <time>2012-04-29T09:09:25Z</time>
      </trkpt>
      <trkpt lat="45.57933" lon="6.69073">
        <ele>1284.1999511719</ele>
        <time>2012-04-29T09:09:38Z</time>
      </trkpt>
      <trkpt lat="45.57938" lon="6.69065">
        <ele>1286.5999755859</ele>
        <time>2012-04-29T09:09:46Z</time>
      </trkpt>
      <trkpt lat="45.57943" lon="6.69057">
        <ele>1288.8000488281</ele>
        <time>2012-04-29T09:09:55Z</time>
      </trkpt>
      <trkpt lat="45.57954" lon="6.69039">
        <ele>1293</ele>
        <time>2012-04-29T09:10:12Z</time>
      </trkpt>
      <trkpt lat="45.57958" lon="6.69028">
        <ele>1294.4000244141</ele>
        <time>2012-04-29T09:10:23Z</time>
      </trkpt>
      <trkpt lat="45.57962" lon="6.69012">
        <ele>1295.5999755859</ele>
        <time>2012-04-29T09:10:31Z</time>
      </trkpt>
      <trkpt lat="45.57978" lon="6.68986">
        <ele>1299.1999511719</ele>
        <time>2012-04-29T09:10:45Z</time>
      </trkpt>
      <trkpt lat="45.57998" lon="6.6897">
        <ele>1304.4000244141</ele>
        <time>2012-04-29T09:10:59Z</time>
      </trkpt>
      <trkpt lat="45.58013" lon="6.68958">
        <ele>1307.8000488281</ele>
        <time>2012-04-29T09:11:09Z</time>
      </trkpt>
      <trkpt lat="45.5803" lon="6.68947">
        <ele>1312</ele>
        <time>2012-04-29T09:11:20Z</time>
      </trkpt>
      <trkpt lat="45.58044" lon="6.68936">
        <ele>1314.8000488281</ele>
        <time>2012-04-29T09:11:30Z</time>
      </trkpt>
      <trkpt lat="45.58067" lon="6.68912">
        <ele>1317</ele>
        <time>2012-04-29T09:11:47Z</time>
      </trkpt>
      <trkpt lat="45.58081" lon="6.68909">
        <ele>1321.1999511719</ele>
        <time>2012-04-29T09:12:00Z</time>
      </trkpt>
      <trkpt lat="45.58086" lon="6.68906">
        <ele>1321.8000488281</ele>
        <time>2012-04-29T09:12:10Z</time>
      </trkpt>
      <trkpt lat="45.58099" lon="6.68895">
        <ele>1323</ele>
        <time>2012-04-29T09:12:25Z</time>
      </trkpt>
      <trkpt lat="45.58106" lon="6.68887">
        <ele>1323.1999511719</ele>
        <time>2012-04-29T09:12:36Z</time>
      </trkpt>
      <trkpt lat="45.58117" lon="6.6888">
        <ele>1324.4000244141</ele>
        <time>2012-04-29T09:12:50Z</time>
      </trkpt>
      <trkpt lat="45.58126" lon="6.68873">
        <ele>1325.5999755859</ele>
        <time>2012-04-29T09:13:02Z</time>
      </trkpt>
      <trkpt lat="45.58139" lon="6.68865">
        <ele>1327.5999755859</ele>
        <time>2012-04-29T09:13:18Z</time>
      </trkpt>
      <trkpt lat="45.58151" lon="6.68853">
        <ele>1328.1999511719</ele>
        <time>2012-04-29T09:13:44Z</time>
      </trkpt>
      <trkpt lat="45.58175" lon="6.68839">
        <ele>1333.5999755859</ele>
        <time>2012-04-29T09:13:59Z</time>
      </trkpt>
      <trkpt lat="45.58211" lon="6.6883">
        <ele>1348.4000244141</ele>
        <time>2012-04-29T09:14:22Z</time>
      </trkpt>
      <trkpt lat="45.58227" lon="6.6882">
        <ele>1356</ele>
        <time>2012-04-29T09:14:33Z</time>
      </trkpt>
      <trkpt lat="45.58228" lon="6.68798">
        <ele>1356.1999511719</ele>
        <time>2012-04-29T09:14:43Z</time>
      </trkpt>
      <trkpt lat="45.58224" lon="6.68764">
        <ele>1353.4000244141</ele>
        <time>2012-04-29T09:14:57Z</time>
      </trkpt>
      <trkpt lat="45.58217" lon="6.68738">
        <ele>1349.4000244141</ele>
        <time>2012-04-29T09:15:08Z</time>
      </trkpt>
      <trkpt lat="45.58218" lon="6.68701">
        <ele>1350.4000244141</ele>
        <time>2012-04-29T09:15:27Z</time>
      </trkpt>
      <trkpt lat="45.58223" lon="6.68693">
        <ele>1353.4000244141</ele>
        <time>2012-04-29T09:15:35Z</time>
      </trkpt>
      <trkpt lat="45.58231" lon="6.68683">
        <ele>1357.1999511719</ele>
        <time>2012-04-29T09:15:46Z</time>
      </trkpt>
      <trkpt lat="45.58238" lon="6.68676">
        <ele>1360.4000244141</ele>
        <time>2012-04-29T09:15:54Z</time>
      </trkpt>
      <trkpt lat="45.58246" lon="6.68664">
        <ele>1364.4000244141</ele>
        <time>2012-04-29T09:16:04Z</time>
      </trkpt>
      <trkpt lat="45.58257" lon="6.68656">
        <ele>1369</ele>
        <time>2012-04-29T09:16:14Z</time>
      </trkpt>
      <trkpt lat="45.58267" lon="6.68651">
        <ele>1372.8000488281</ele>
        <time>2012-04-29T09:16:25Z</time>
      </trkpt>
      <trkpt lat="45.58276" lon="6.68643">
        <ele>1376.4000244141</ele>
        <time>2012-04-29T09:16:35Z</time>
      </trkpt>
      <trkpt lat="45.58287" lon="6.68636">
        <ele>1380.1999511719</ele>
        <time>2012-04-29T09:16:45Z</time>
      </trkpt>
      <trkpt lat="45.58294" lon="6.6862">
        <ele>1382</ele>
        <time>2012-04-29T09:16:56Z</time>
      </trkpt>
      <trkpt lat="45.58298" lon="6.68597">
        <ele>1382.4000244141</ele>
        <time>2012-04-29T09:17:08Z</time>
      </trkpt>
      <trkpt lat="45.58303" lon="6.68574">
        <ele>1383.1999511719</ele>
        <time>2012-04-29T09:17:21Z</time>
      </trkpt>
      <trkpt lat="45.5831" lon="6.68557">
        <ele>1385.1999511719</ele>
        <time>2012-04-29T09:17:32Z</time>
      </trkpt>
      <trkpt lat="45.58319" lon="6.68547">
        <ele>1387.8000488281</ele>
        <time>2012-04-29T09:17:43Z</time>
      </trkpt>
      <trkpt lat="45.5832" lon="6.68557">
        <ele>1388.1999511719</ele>
        <time>2012-04-29T09:17:49Z</time>
      </trkpt>
      <trkpt lat="45.58323" lon="6.68576">
        <ele>1389.5999755859</ele>
        <time>2012-04-29T09:17:58Z</time>
      </trkpt>
      <trkpt lat="45.58333" lon="6.6859">
        <ele>1393.5999755859</ele>
        <time>2012-04-29T09:18:09Z</time>
      </trkpt>
      <trkpt lat="45.58345" lon="6.68602">
        <ele>1398.4000244141</ele>
        <time>2012-04-29T09:18:20Z</time>
      </trkpt>
      <trkpt lat="45.5835" lon="6.6861">
        <ele>1401.1999511719</ele>
        <time>2012-04-29T09:18:26Z</time>
      </trkpt>
      <trkpt lat="45.58364" lon="6.68619">
        <ele>1406.5999755859</ele>
        <time>2012-04-29T09:18:39Z</time>
      </trkpt>
      <trkpt lat="45.58372" lon="6.68627">
        <ele>1410.4000244141</ele>
        <time>2012-04-29T09:18:48Z</time>
      </trkpt>
      <trkpt lat="45.58383" lon="6.6864">
        <ele>1415.4000244141</ele>
        <time>2012-04-29T09:19:01Z</time>
      </trkpt>
      <trkpt lat="45.58388" lon="6.68629">
        <ele>1416.1999511719</ele>
        <time>2012-04-29T09:19:13Z</time>
      </trkpt>
      <trkpt lat="45.58393" lon="6.68605">
        <ele>1416</ele>
        <time>2012-04-29T09:19:28Z</time>
      </trkpt>
      <trkpt lat="45.584" lon="6.68597">
        <ele>1417.5999755859</ele>
        <time>2012-04-29T09:19:37Z</time>
      </trkpt>
      <trkpt lat="45.58409" lon="6.68589">
        <ele>1420</ele>
        <time>2012-04-29T09:19:46Z</time>
      </trkpt>
      <trkpt lat="45.58415" lon="6.68584">
        <ele>1421.4000244141</ele>
        <time>2012-04-29T09:19:52Z</time>
      </trkpt>
      <trkpt lat="45.58429" lon="6.68572">
        <ele>1426.1999511719</ele>
        <time>2012-04-29T09:20:04Z</time>
      </trkpt>
      <trkpt lat="45.58439" lon="6.68562">
        <ele>1429.8000488281</ele>
        <time>2012-04-29T09:20:13Z</time>
      </trkpt>
      <trkpt lat="45.58452" lon="6.6855">
        <ele>1434</ele>
        <time>2012-04-29T09:20:24Z</time>
      </trkpt>
      <trkpt lat="45.58462" lon="6.68537">
        <ele>1436.8000488281</ele>
        <time>2012-04-29T09:20:35Z</time>
      </trkpt>
      <trkpt lat="45.5847" lon="6.68524">
        <ele>1438.4000244141</ele>
        <time>2012-04-29T09:20:45Z</time>
      </trkpt>
      <trkpt lat="45.58477" lon="6.68513">
        <ele>1440</ele>
        <time>2012-04-29T09:20:55Z</time>
      </trkpt>
      <trkpt lat="45.58484" lon="6.68501">
        <ele>1441</ele>
        <time>2012-04-29T09:21:05Z</time>
      </trkpt>
      <trkpt lat="45.58493" lon="6.68486">
        <ele>1442</ele>
        <time>2012-04-29T09:21:18Z</time>
      </trkpt>
      <trkpt lat="45.58501" lon="6.6848">
        <ele>1444.4000244141</ele>
        <time>2012-04-29T09:21:28Z</time>
      </trkpt>
      <trkpt lat="45.5851" lon="6.68476">
        <ele>1446.5999755859</ele>
        <time>2012-04-29T09:21:39Z</time>
      </trkpt>
      <trkpt lat="45.5852" lon="6.68475">
        <ele>1449.8000488281</ele>
        <time>2012-04-29T09:21:49Z</time>
      </trkpt>
      <trkpt lat="45.58528" lon="6.68466">
        <ele>1451.1999511719</ele>
        <time>2012-04-29T09:21:57Z</time>
      </trkpt>
      <trkpt lat="45.58541" lon="6.68449">
        <ele>1453</ele>
        <time>2012-04-29T09:22:08Z</time>
      </trkpt>
      <trkpt lat="45.58552" lon="6.6843">
        <ele>1453.5999755859</ele>
        <time>2012-04-29T09:22:18Z</time>
      </trkpt>
      <trkpt lat="45.58568" lon="6.68406">
        <ele>1456.1999511719</ele>
        <time>2012-04-29T09:22:32Z</time>
      </trkpt>
      <trkpt lat="45.58592" lon="6.68382">
        <ele>1461.5999755859</ele>
        <time>2012-04-29T09:22:50Z</time>
      </trkpt>
      <trkpt lat="45.5861" lon="6.68362">
        <ele>1464.4000244141</ele>
        <time>2012-04-29T09:23:03Z</time>
      </trkpt>
      <trkpt lat="45.58625" lon="6.68344">
        <ele>1466.8000488281</ele>
        <time>2012-04-29T09:23:16Z</time>
      </trkpt>
      <trkpt lat="45.58639" lon="6.68333">
        <ele>1469.4000244141</ele>
        <time>2012-04-29T09:23:29Z</time>
      </trkpt>
      <trkpt lat="45.58649" lon="6.68328">
        <ele>1471.8000488281</ele>
        <time>2012-04-29T09:23:38Z</time>
      </trkpt>
      <trkpt lat="45.58663" lon="6.68326">
        <ele>1475.1999511719</ele>
        <time>2012-04-29T09:23:50Z</time>
      </trkpt>
      <trkpt lat="45.58672" lon="6.68326">
        <ele>1477.1999511719</ele>
        <time>2012-04-29T09:23:59Z</time>
      </trkpt>
      <trkpt lat="45.5868" lon="6.68324">
        <ele>1479</ele>
        <time>2012-04-29T09:24:06Z</time>
      </trkpt>
      <trkpt lat="45.58696" lon="6.6832">
        <ele>1482.4000244141</ele>
        <time>2012-04-29T09:24:19Z</time>
      </trkpt>
      <trkpt lat="45.58713" lon="6.68315">
        <ele>1486.1999511719</ele>
        <time>2012-04-29T09:24:29Z</time>
      </trkpt>
      <trkpt lat="45.58735" lon="6.68316">
        <ele>1491</ele>
        <time>2012-04-29T09:24:41Z</time>
      </trkpt>
      <trkpt lat="45.58765" lon="6.68303">
        <ele>1496.5999755859</ele>
        <time>2012-04-29T09:24:56Z</time>
      </trkpt>
      <trkpt lat="45.58771" lon="6.68293">
        <ele>1497.8000488281</ele>
        <time>2012-04-29T09:25:09Z</time>
      </trkpt>
      <trkpt lat="45.58773" lon="6.68298">
        <ele>1498</ele>
        <time>2012-04-29T09:25:27Z</time>
      </trkpt>
      <trkpt lat="45.58782" lon="6.68289">
        <ele>1499.1999511719</ele>
        <time>2012-04-29T09:25:40Z</time>
      </trkpt>
      <trkpt lat="45.58798" lon="6.68281">
        <ele>1501.5999755859</ele>
        <time>2012-04-29T09:25:50Z</time>
      </trkpt>
      <trkpt lat="45.58818" lon="6.68273">
        <ele>1504.4000244141</ele>
        <time>2012-04-29T09:26:06Z</time>
      </trkpt>
      <trkpt lat="45.58816" lon="6.68256">
        <ele>1503.8000488281</ele>
        <time>2012-04-29T09:26:12Z</time>
      </trkpt>
      <trkpt lat="45.58805" lon="6.6822">
        <ele>1503</ele>
        <time>2012-04-29T09:26:24Z</time>
      </trkpt>
      <trkpt lat="45.58805" lon="6.68191">
        <ele>1503.8000488281</ele>
        <time>2012-04-29T09:26:35Z</time>
      </trkpt>
      <trkpt lat="45.58824" lon="6.68138">
        <ele>1505.4000244141</ele>
        <time>2012-04-29T09:26:55Z</time>
      </trkpt>
      <trkpt lat="45.58842" lon="6.68059">
        <ele>1503.5999755859</ele>
        <time>2012-04-29T09:27:19Z</time>
      </trkpt>
      <trkpt lat="45.58823" lon="6.68021">
        <ele>1498.5999755859</ele>
        <time>2012-04-29T09:27:31Z</time>
      </trkpt>
      <trkpt lat="45.58813" lon="6.67982">
        <ele>1494.4000244141</ele>
        <time>2012-04-29T09:27:41Z</time>
      </trkpt>
      <trkpt lat="45.58804" lon="6.67946">
        <ele>1490.4000244141</ele>
        <time>2012-04-29T09:27:51Z</time>
      </trkpt>
      <trkpt lat="45.58794" lon="6.67916">
        <ele>1487.1999511719</ele>
        <time>2012-04-29T09:28:01Z</time>
      </trkpt>
      <trkpt lat="45.58777" lon="6.67881">
        <ele>1482.4000244141</ele>
        <time>2012-04-29T09:28:13Z</time>
      </trkpt>
      <trkpt lat="45.58764" lon="6.67849">
        <ele>1478.5999755859</ele>
        <time>2012-04-29T09:28:23Z</time>
      </trkpt>
      <trkpt lat="45.58756" lon="6.67839">
        <ele>1477</ele>
        <time>2012-04-29T09:28:28Z</time>
      </trkpt>
      <trkpt lat="45.58738" lon="6.67826">
        <ele>1473.5999755859</ele>
        <time>2012-04-29T09:28:36Z</time>
      </trkpt>
      <trkpt lat="45.58719" lon="6.67828">
        <ele>1471.5999755859</ele>
        <time>2012-04-29T09:28:43Z</time>
      </trkpt>
      <trkpt lat="45.58697" lon="6.6781">
        <ele>1467</ele>
        <time>2012-04-29T09:28:53Z</time>
      </trkpt>
      <trkpt lat="45.58685" lon="6.67774">
        <ele>1461.4000244141</ele>
        <time>2012-04-29T09:29:03Z</time>
      </trkpt>
      <trkpt lat="45.58673" lon="6.67743">
        <ele>1456.8000488281</ele>
        <time>2012-04-29T09:29:12Z</time>
      </trkpt>
      <trkpt lat="45.58653" lon="6.67719">
        <ele>1450.8000488281</ele>
        <time>2012-04-29T09:29:24Z</time>
      </trkpt>
      <trkpt lat="45.58634" lon="6.67718">
        <ele>1447</ele>
        <time>2012-04-29T09:29:31Z</time>
      </trkpt>
      <trkpt lat="45.5862" lon="6.67749">
        <ele>1446.4000244141</ele>
        <time>2012-04-29T09:29:41Z</time>
      </trkpt>
      <trkpt lat="45.58614" lon="6.67779">
        <ele>1447.4000244141</ele>
        <time>2012-04-29T09:29:49Z</time>
      </trkpt>
      <trkpt lat="45.58605" lon="6.67816">
        <ele>1448.1999511719</ele>
        <time>2012-04-29T09:29:59Z</time>
      </trkpt>
      <trkpt lat="45.58593" lon="6.67858">
        <ele>1448.5999755859</ele>
        <time>2012-04-29T09:30:11Z</time>
      </trkpt>
      <trkpt lat="45.58578" lon="6.67863">
        <ele>1444.4000244141</ele>
        <time>2012-04-29T09:30:25Z</time>
      </trkpt>
      <trkpt lat="45.5858" lon="6.67837">
        <ele>1443.1999511719</ele>
        <time>2012-04-29T09:30:32Z</time>
      </trkpt>
      <trkpt lat="45.58572" lon="6.67797">
        <ele>1437.5999755859</ele>
        <time>2012-04-29T09:30:43Z</time>
      </trkpt>
      <trkpt lat="45.5858" lon="6.67762">
        <ele>1437.5999755859</ele>
        <time>2012-04-29T09:30:54Z</time>
      </trkpt>
      <trkpt lat="45.58577" lon="6.67731">
        <ele>1435.1999511719</ele>
        <time>2012-04-29T09:31:02Z</time>
      </trkpt>
      <trkpt lat="45.58558" lon="6.6767">
        <ele>1426.5999755859</ele>
        <time>2012-04-29T09:31:20Z</time>
      </trkpt>
      <trkpt lat="45.58535" lon="6.67637">
        <ele>1419.5999755859</ele>
        <time>2012-04-29T09:31:33Z</time>
      </trkpt>
      <trkpt lat="45.58515" lon="6.67613">
        <ele>1415.1999511719</ele>
        <time>2012-04-29T09:31:43Z</time>
      </trkpt>
      <trkpt lat="45.58498" lon="6.67583">
        <ele>1412.5999755859</ele>
        <time>2012-04-29T09:31:53Z</time>
      </trkpt>
      <trkpt lat="45.58488" lon="6.67539">
        <ele>1407.8000488281</ele>
        <time>2012-04-29T09:32:07Z</time>
      </trkpt>
      <trkpt lat="45.58474" lon="6.67547">
        <ele>1405.4000244141</ele>
        <time>2012-04-29T09:32:14Z</time>
      </trkpt>
      <trkpt lat="45.58468" lon="6.6757">
        <ele>1404.8000488281</ele>
        <time>2012-04-29T09:32:21Z</time>
      </trkpt>
      <trkpt lat="45.58484" lon="6.676">
        <ele>1408.4000244141</ele>
        <time>2012-04-29T09:32:31Z</time>
      </trkpt>
      <trkpt lat="45.58496" lon="6.67651">
        <ele>1408.8000488281</ele>
        <time>2012-04-29T09:32:45Z</time>
      </trkpt>
      <trkpt lat="45.58479" lon="6.67696">
        <ele>1403.5999755859</ele>
        <time>2012-04-29T09:32:58Z</time>
      </trkpt>
      <trkpt lat="45.58459" lon="6.67731">
        <ele>1398.8000488281</ele>
        <time>2012-04-29T09:33:10Z</time>
      </trkpt>
      <trkpt lat="45.58436" lon="6.67782">
        <ele>1392.5999755859</ele>
        <time>2012-04-29T09:33:25Z</time>
      </trkpt>
      <trkpt lat="45.58434" lon="6.67833">
        <ele>1391.1999511719</ele>
        <time>2012-04-29T09:33:38Z</time>
      </trkpt>
      <trkpt lat="45.58436" lon="6.67872">
        <ele>1390.5999755859</ele>
        <time>2012-04-29T09:33:49Z</time>
      </trkpt>
      <trkpt lat="45.5843" lon="6.6793">
        <ele>1387.8000488281</ele>
        <time>2012-04-29T09:34:05Z</time>
      </trkpt>
      <trkpt lat="45.5841" lon="6.67979">
        <ele>1382.4000244141</ele>
        <time>2012-04-29T09:34:19Z</time>
      </trkpt>
      <trkpt lat="45.58393" lon="6.68027">
        <ele>1380</ele>
        <time>2012-04-29T09:34:33Z</time>
      </trkpt>
      <trkpt lat="45.58378" lon="6.6806">
        <ele>1376.8000488281</ele>
        <time>2012-04-29T09:34:45Z</time>
      </trkpt>
      <trkpt lat="45.58365" lon="6.68096">
        <ele>1373.8000488281</ele>
        <time>2012-04-29T09:34:57Z</time>
      </trkpt>
      <trkpt lat="45.58366" lon="6.68129">
        <ele>1375.1999511719</ele>
        <time>2012-04-29T09:35:07Z</time>
      </trkpt>
      <trkpt lat="45.58355" lon="6.68114">
        <ele>1370</ele>
        <time>2012-04-29T09:35:14Z</time>
      </trkpt>
      <trkpt lat="45.58343" lon="6.68077">
        <ele>1364.4000244141</ele>
        <time>2012-04-29T09:35:25Z</time>
      </trkpt>
      <trkpt lat="45.58337" lon="6.68031">
        <ele>1359.8000488281</ele>
        <time>2012-04-29T09:35:38Z</time>
      </trkpt>
      <trkpt lat="45.58337" lon="6.67998">
        <ele>1358.1999511719</ele>
        <time>2012-04-29T09:35:47Z</time>
      </trkpt>
      <trkpt lat="45.58334" lon="6.67943">
        <ele>1356</ele>
        <time>2012-04-29T09:36:01Z</time>
      </trkpt>
      <trkpt lat="45.58327" lon="6.6789">
        <ele>1354.5999755859</ele>
        <time>2012-04-29T09:36:15Z</time>
      </trkpt>
      <trkpt lat="45.58311" lon="6.67853">
        <ele>1351.8000488281</ele>
        <time>2012-04-29T09:36:26Z</time>
      </trkpt>
      <trkpt lat="45.58291" lon="6.67818">
        <ele>1347.8000488281</ele>
        <time>2012-04-29T09:36:38Z</time>
      </trkpt>
      <trkpt lat="45.58269" lon="6.67789">
        <ele>1343.4000244141</ele>
        <time>2012-04-29T09:36:49Z</time>
      </trkpt>
      <trkpt lat="45.58249" lon="6.67752">
        <ele>1339.5999755859</ele>
        <time>2012-04-29T09:37:01Z</time>
      </trkpt>
      <trkpt lat="45.58229" lon="6.67702">
        <ele>1338.8000488281</ele>
        <time>2012-04-29T09:37:16Z</time>
      </trkpt>
      <trkpt lat="45.58212" lon="6.67669">
        <ele>1337.1999511719</ele>
        <time>2012-04-29T09:37:27Z</time>
      </trkpt>
      <trkpt lat="45.58184" lon="6.6764">
        <ele>1331.8000488281</ele>
        <time>2012-04-29T09:37:40Z</time>
      </trkpt>
      <trkpt lat="45.58178" lon="6.67597">
        <ele>1332.1999511719</ele>
        <time>2012-04-29T09:37:53Z</time>
      </trkpt>
      <trkpt lat="45.58166" lon="6.67551">
        <ele>1330.8000488281</ele>
        <time>2012-04-29T09:38:07Z</time>
      </trkpt>
      <trkpt lat="45.58142" lon="6.67527">
        <ele>1324.5999755859</ele>
        <time>2012-04-29T09:38:18Z</time>
      </trkpt>
      <trkpt lat="45.58122" lon="6.67495">
        <ele>1319.5999755859</ele>
        <time>2012-04-29T09:38:29Z</time>
      </trkpt>
      <trkpt lat="45.58097" lon="6.67455">
        <ele>1312.4000244141</ele>
        <time>2012-04-29T09:38:43Z</time>
      </trkpt>
      <trkpt lat="45.5809" lon="6.67418">
        <ele>1311</ele>
        <time>2012-04-29T09:38:54Z</time>
      </trkpt>
      <trkpt lat="45.58103" lon="6.67389">
        <ele>1316.5999755859</ele>
        <time>2012-04-29T09:39:06Z</time>
      </trkpt>
      <trkpt lat="45.58106" lon="6.67382">
        <ele>1317.5999755859</ele>
        <time>2012-04-29T09:39:13Z</time>
      </trkpt>
      <trkpt lat="45.58102" lon="6.67379">
        <ele>1316.5999755859</ele>
        <time>2012-04-29T09:39:41Z</time>
      </trkpt>
      <trkpt lat="45.58083" lon="6.67387">
        <ele>1309.8000488281</ele>
        <time>2012-04-29T09:39:52Z</time>
      </trkpt>
      <trkpt lat="45.58068" lon="6.67409">
        <ele>1304.5999755859</ele>
        <time>2012-04-29T09:40:00Z</time>
      </trkpt>
      <trkpt lat="45.58073" lon="6.67464">
        <ele>1304.8000488281</ele>
        <time>2012-04-29T09:40:15Z</time>
      </trkpt>
      <trkpt lat="45.58074" lon="6.67512">
        <ele>1304</ele>
        <time>2012-04-29T09:40:28Z</time>
      </trkpt>
      <trkpt lat="45.58059" lon="6.67552">
        <ele>1299.1999511719</ele>
        <time>2012-04-29T09:40:40Z</time>
      </trkpt>
      <trkpt lat="45.58025" lon="6.67585">
        <ele>1290.4000244141</ele>
        <time>2012-04-29T09:40:54Z</time>
      </trkpt>
      <trkpt lat="45.58005" lon="6.6762">
        <ele>1286.1999511719</ele>
        <time>2012-04-29T09:41:06Z</time>
      </trkpt>
      <trkpt lat="45.57985" lon="6.67651">
        <ele>1280.4000244141</ele>
        <time>2012-04-29T09:41:17Z</time>
      </trkpt>
      <trkpt lat="45.57985" lon="6.67694">
        <ele>1278.8000488281</ele>
        <time>2012-04-29T09:41:28Z</time>
      </trkpt>
      <trkpt lat="45.58004" lon="6.67741">
        <ele>1280.8000488281</ele>
        <time>2012-04-29T09:41:43Z</time>
      </trkpt>
      <trkpt lat="45.58012" lon="6.67767">
        <ele>1279.8000488281</ele>
        <time>2012-04-29T09:41:51Z</time>
      </trkpt>
      <trkpt lat="45.58043" lon="6.67827">
        <ele>1281</ele>
        <time>2012-04-29T09:42:11Z</time>
      </trkpt>
      <trkpt lat="45.58038" lon="6.67892">
        <ele>1279.8000488281</ele>
        <time>2012-04-29T09:42:31Z</time>
      </trkpt>
      <trkpt lat="45.5803" lon="6.6791">
        <ele>1278.4000244141</ele>
        <time>2012-04-29T09:42:37Z</time>
      </trkpt>
      <trkpt lat="45.58012" lon="6.6795">
        <ele>1276.5999755859</ele>
        <time>2012-04-29T09:42:49Z</time>
      </trkpt>
      <trkpt lat="45.57994" lon="6.67978">
        <ele>1274.1999511719</ele>
        <time>2012-04-29T09:42:59Z</time>
      </trkpt>
      <trkpt lat="45.57975" lon="6.68021">
        <ele>1271.1999511719</ele>
        <time>2012-04-29T09:43:11Z</time>
      </trkpt>
      <trkpt lat="45.57969" lon="6.68057">
        <ele>1269.8000488281</ele>
        <time>2012-04-29T09:43:19Z</time>
      </trkpt>
      <trkpt lat="45.57956" lon="6.68101">
        <ele>1265.5999755859</ele>
        <time>2012-04-29T09:43:30Z</time>
      </trkpt>
      <trkpt lat="45.57955" lon="6.68143">
        <ele>1263.5999755859</ele>
        <time>2012-04-29T09:43:40Z</time>
      </trkpt>
      <trkpt lat="45.57953" lon="6.68184">
        <ele>1262.8000488281</ele>
        <time>2012-04-29T09:43:53Z</time>
      </trkpt>
      <trkpt lat="45.57931" lon="6.68192">
        <ele>1257.8000488281</ele>
        <time>2012-04-29T09:44:02Z</time>
      </trkpt>
      <trkpt lat="45.57926" lon="6.68195">
        <ele>1256.8000488281</ele>
        <time>2012-04-29T09:44:16Z</time>
      </trkpt>
      <trkpt lat="45.57897" lon="6.68201">
        <ele>1251.4000244141</ele>
        <time>2012-04-29T09:44:29Z</time>
      </trkpt>
      <trkpt lat="45.57877" lon="6.68223">
        <ele>1249.5999755859</ele>
        <time>2012-04-29T09:44:38Z</time>
      </trkpt>
      <trkpt lat="45.57843" lon="6.68256">
        <ele>1247</ele>
        <time>2012-04-29T09:44:53Z</time>
      </trkpt>
      <trkpt lat="45.57814" lon="6.68277">
        <ele>1243.4000244141</ele>
        <time>2012-04-29T09:45:04Z</time>
      </trkpt>
      <trkpt lat="45.57785" lon="6.68291">
        <ele>1238.8000488281</ele>
        <time>2012-04-29T09:45:15Z</time>
      </trkpt>
      <trkpt lat="45.57771" lon="6.68295">
        <ele>1236.1999511719</ele>
        <time>2012-04-29T09:45:21Z</time>
      </trkpt>
      <trkpt lat="45.57741" lon="6.68301">
        <ele>1230.1999511719</ele>
        <time>2012-04-29T09:45:32Z</time>
      </trkpt>
      <trkpt lat="45.57712" lon="6.68284">
        <ele>1224.5999755859</ele>
        <time>2012-04-29T09:45:43Z</time>
      </trkpt>
      <trkpt lat="45.57692" lon="6.68284">
        <ele>1220.8000488281</ele>
        <time>2012-04-29T09:45:50Z</time>
      </trkpt>
      <trkpt lat="45.57672" lon="6.68283">
        <ele>1217</ele>
        <time>2012-04-29T09:45:58Z</time>
      </trkpt>
      <trkpt lat="45.57659" lon="6.68284">
        <ele>1214</ele>
        <time>2012-04-29T09:46:03Z</time>
      </trkpt>
      <trkpt lat="45.5764" lon="6.68284">
        <ele>1209</ele>
        <time>2012-04-29T09:46:10Z</time>
      </trkpt>
      <trkpt lat="45.57632" lon="6.68289">
        <ele>1206.8000488281</ele>
        <time>2012-04-29T09:46:16Z</time>
      </trkpt>
      <trkpt lat="45.57631" lon="6.68322">
        <ele>1204.5999755859</ele>
        <time>2012-04-29T09:46:26Z</time>
      </trkpt>
      <trkpt lat="45.57642" lon="6.68362">
        <ele>1201.5999755859</ele>
        <time>2012-04-29T09:46:37Z</time>
      </trkpt>
      <trkpt lat="45.57654" lon="6.68387">
        <ele>1200.4000244141</ele>
        <time>2012-04-29T09:46:45Z</time>
      </trkpt>
      <trkpt lat="45.57675" lon="6.68417">
        <ele>1201.4000244141</ele>
        <time>2012-04-29T09:46:56Z</time>
      </trkpt>
      <trkpt lat="45.57687" lon="6.68434">
        <ele>1202.1999511719</ele>
        <time>2012-04-29T09:47:02Z</time>
      </trkpt>
      <trkpt lat="45.57688" lon="6.68463">
        <ele>1198</ele>
        <time>2012-04-29T09:47:09Z</time>
      </trkpt>
      <trkpt lat="45.57692" lon="6.68523">
        <ele>1189.1999511719</ele>
        <time>2012-04-29T09:47:23Z</time>
      </trkpt>
      <trkpt lat="45.57711" lon="6.68568">
        <ele>1185.5999755859</ele>
        <time>2012-04-29T09:47:36Z</time>
      </trkpt>
      <trkpt lat="45.57717" lon="6.68596">
        <ele>1181</ele>
        <time>2012-04-29T09:47:45Z</time>
      </trkpt>
      <trkpt lat="45.57692" lon="6.68594">
        <ele>1175.5999755859</ele>
        <time>2012-04-29T09:47:54Z</time>
      </trkpt>
      <trkpt lat="45.57676" lon="6.68587">
        <ele>1173.4000244141</ele>
        <time>2012-04-29T09:48:00Z</time>
      </trkpt>
      <trkpt lat="45.57652" lon="6.68575">
        <ele>1170.4000244141</ele>
        <time>2012-04-29T09:48:09Z</time>
      </trkpt>
      <trkpt lat="45.57631" lon="6.68559">
        <ele>1168.1999511719</ele>
        <time>2012-04-29T09:48:18Z</time>
      </trkpt>
      <trkpt lat="45.5761" lon="6.68546">
        <ele>1165.4000244141</ele>
        <time>2012-04-29T09:48:27Z</time>
      </trkpt>
      <trkpt lat="45.57584" lon="6.6854">
        <ele>1160.1999511719</ele>
        <time>2012-04-29T09:48:37Z</time>
      </trkpt>
      <trkpt lat="45.5756" lon="6.68534">
        <ele>1154.1999511719</ele>
        <time>2012-04-29T09:48:47Z</time>
      </trkpt>
      <trkpt lat="45.57558" lon="6.68504">
        <ele>1156.5999755859</ele>
        <time>2012-04-29T09:48:56Z</time>
      </trkpt>
      <trkpt lat="45.57564" lon="6.68485">
        <ele>1160.5999755859</ele>
        <time>2012-04-29T09:49:02Z</time>
      </trkpt>
      <trkpt lat="45.57553" lon="6.68445">
        <ele>1161.4000244141</ele>
        <time>2012-04-29T09:49:13Z</time>
      </trkpt>
      <trkpt lat="45.57531" lon="6.68418">
        <ele>1157.1999511719</ele>
        <time>2012-04-29T09:49:24Z</time>
      </trkpt>
      <trkpt lat="45.57506" lon="6.68387">
        <ele>1154.4000244141</ele>
        <time>2012-04-29T09:49:38Z</time>
      </trkpt>
      <trkpt lat="45.57502" lon="6.68387">
        <ele>1152.8000488281</ele>
        <time>2012-04-29T09:49:47Z</time>
      </trkpt>
      <trkpt lat="45.57505" lon="6.68406">
        <ele>1150.5999755859</ele>
        <time>2012-04-29T09:50:02Z</time>
      </trkpt>
      <trkpt lat="45.57511" lon="6.68433">
        <ele>1149</ele>
        <time>2012-04-29T09:50:10Z</time>
      </trkpt>
      <trkpt lat="45.57518" lon="6.68466">
        <ele>1147.5999755859</ele>
        <time>2012-04-29T09:50:18Z</time>
      </trkpt>
      <trkpt lat="45.57521" lon="6.68508">
        <ele>1144.5999755859</ele>
        <time>2012-04-29T09:50:33Z</time>
      </trkpt>
      <trkpt lat="45.57523" lon="6.68507">
        <ele>1145</ele>
        <time>2012-04-29T09:50:57Z</time>
      </trkpt>
      <trkpt lat="45.57525" lon="6.68507">
        <ele>1145.5999755859</ele>
        <time>2012-04-29T09:51:17Z</time>
      </trkpt>
      <trkpt lat="45.57521" lon="6.68512">
        <ele>1144.4000244141</ele>
        <time>2012-04-29T09:53:11Z</time>
      </trkpt>
      <trkpt lat="45.57512" lon="6.68534">
        <ele>1140.5999755859</ele>
        <time>2012-04-29T09:53:20Z</time>
      </trkpt>
      <trkpt lat="45.575" lon="6.68539">
        <ele>1137</ele>
        <time>2012-04-29T09:53:26Z</time>
      </trkpt>
      <trkpt lat="45.57493" lon="6.68553">
        <ele>1134.8000488281</ele>
        <time>2012-04-29T09:53:41Z</time>
      </trkpt>
      <trkpt lat="45.57484" lon="6.6857">
        <ele>1132</ele>
        <time>2012-04-29T09:53:49Z</time>
      </trkpt>
      <trkpt lat="45.57479" lon="6.68587">
        <ele>1130</ele>
        <time>2012-04-29T09:54:03Z</time>
      </trkpt>
      <trkpt lat="45.57476" lon="6.68589">
        <ele>1129.1999511719</ele>
        <time>2012-04-29T09:54:25Z</time>
      </trkpt>
      <trkpt lat="45.57478" lon="6.68592">
        <ele>1129.5999755859</ele>
        <time>2012-04-29T09:54:47Z</time>
      </trkpt>
      <trkpt lat="45.57479" lon="6.68596">
        <ele>1129.4000244141</ele>
        <time>2012-04-29T09:55:05Z</time>
      </trkpt>
      <trkpt lat="45.57476" lon="6.68596">
        <ele>1128.5999755859</ele>
        <time>2012-04-29T09:55:30Z</time>
      </trkpt>
      <trkpt lat="45.57463" lon="6.6861">
        <ele>1124</ele>
        <time>2012-04-29T09:55:38Z</time>
      </trkpt>
      <trkpt lat="45.57459" lon="6.68636">
        <ele>1121</ele>
        <time>2012-04-29T09:55:46Z</time>
      </trkpt>
      <trkpt lat="45.57456" lon="6.68656">
        <ele>1118.8000488281</ele>
        <time>2012-04-29T09:55:52Z</time>
      </trkpt>
      <trkpt lat="45.57451" lon="6.68672">
        <ele>1115.4000244141</ele>
        <time>2012-04-29T09:56:02Z</time>
      </trkpt>
      <trkpt lat="45.5743" lon="6.6865">
        <ele>1112.5999755859</ele>
        <time>2012-04-29T09:56:13Z</time>
      </trkpt>
      <trkpt lat="45.57419" lon="6.68625">
        <ele>1111.5999755859</ele>
        <time>2012-04-29T09:56:24Z</time>
      </trkpt>
      <trkpt lat="45.5741" lon="6.68591">
        <ele>1111.1999511719</ele>
        <time>2012-04-29T09:56:37Z</time>
      </trkpt>
      <trkpt lat="45.57397" lon="6.68564">
        <ele>1108.5999755859</ele>
        <time>2012-04-29T09:56:47Z</time>
      </trkpt>
      <trkpt lat="45.57381" lon="6.6855">
        <ele>1104.4000244141</ele>
        <time>2012-04-29T09:56:53Z</time>
      </trkpt>
      <trkpt lat="45.57351" lon="6.68533">
        <ele>1097.1999511719</ele>
        <time>2012-04-29T09:57:04Z</time>
      </trkpt>
      <trkpt lat="45.57334" lon="6.68519">
        <ele>1093.4000244141</ele>
        <time>2012-04-29T09:57:11Z</time>
      </trkpt>
      <trkpt lat="45.57317" lon="6.68497">
        <ele>1088.5999755859</ele>
        <time>2012-04-29T09:57:19Z</time>
      </trkpt>
      <trkpt lat="45.57323" lon="6.6846">
        <ele>1090</ele>
        <time>2012-04-29T09:57:28Z</time>
      </trkpt>
      <trkpt lat="45.57326" lon="6.68407">
        <ele>1091.1999511719</ele>
        <time>2012-04-29T09:57:42Z</time>
      </trkpt>
      <trkpt lat="45.57322" lon="6.68367">
        <ele>1090.5999755859</ele>
        <time>2012-04-29T09:57:53Z</time>
      </trkpt>
      <trkpt lat="45.57315" lon="6.6835">
        <ele>1087.5999755859</ele>
        <time>2012-04-29T09:57:59Z</time>
      </trkpt>
      <trkpt lat="45.57305" lon="6.68321">
        <ele>1084.8000488281</ele>
        <time>2012-04-29T09:58:07Z</time>
      </trkpt>
      <trkpt lat="45.57298" lon="6.68288">
        <ele>1085.1999511719</ele>
        <time>2012-04-29T09:58:15Z</time>
      </trkpt>
      <trkpt lat="45.57274" lon="6.68244">
        <ele>1079</ele>
        <time>2012-04-29T09:58:29Z</time>
      </trkpt>
      <trkpt lat="45.5725" lon="6.68209">
        <ele>1071.5999755859</ele>
        <time>2012-04-29T09:58:41Z</time>
      </trkpt>
      <trkpt lat="45.5724" lon="6.68177">
        <ele>1069.1999511719</ele>
        <time>2012-04-29T09:58:50Z</time>
      </trkpt>
      <trkpt lat="45.57236" lon="6.68202">
        <ele>1065</ele>
        <time>2012-04-29T09:58:59Z</time>
      </trkpt>
      <trkpt lat="45.57246" lon="6.68237">
        <ele>1067.4000244141</ele>
        <time>2012-04-29T09:59:09Z</time>
      </trkpt>
      <trkpt lat="45.57261" lon="6.68267">
        <ele>1071</ele>
        <time>2012-04-29T09:59:20Z</time>
      </trkpt>
      <trkpt lat="45.57274" lon="6.68304">
        <ele>1072.5999755859</ele>
        <time>2012-04-29T09:59:31Z</time>
      </trkpt>
      <trkpt lat="45.57268" lon="6.68349">
        <ele>1065.8000488281</ele>
        <time>2012-04-29T09:59:43Z</time>
      </trkpt>
      <trkpt lat="45.57249" lon="6.68362">
        <ele>1056.4000244141</ele>
        <time>2012-04-29T09:59:50Z</time>
      </trkpt>
      <trkpt lat="45.57241" lon="6.6839">
        <ele>1052.1999511719</ele>
        <time>2012-04-29T09:59:58Z</time>
      </trkpt>
      <trkpt lat="45.57232" lon="6.68442">
        <ele>1049.1999511719</ele>
        <time>2012-04-29T10:00:11Z</time>
      </trkpt>
      <trkpt lat="45.57211" lon="6.68489">
        <ele>1042.8000488281</ele>
        <time>2012-04-29T10:00:25Z</time>
      </trkpt>
      <trkpt lat="45.57199" lon="6.68521">
        <ele>1037</ele>
        <time>2012-04-29T10:00:34Z</time>
      </trkpt>
      <trkpt lat="45.57201" lon="6.68551">
        <ele>1036.5999755859</ele>
        <time>2012-04-29T10:00:43Z</time>
      </trkpt>
      <trkpt lat="45.57197" lon="6.68534">
        <ele>1035.4000244141</ele>
        <time>2012-04-29T10:00:48Z</time>
      </trkpt>
      <trkpt lat="45.57188" lon="6.68495">
        <ele>1031.8000488281</ele>
        <time>2012-04-29T10:01:01Z</time>
      </trkpt>
      <trkpt lat="45.57182" lon="6.68485">
        <ele>1029</ele>
        <time>2012-04-29T10:01:08Z</time>
      </trkpt>
      <trkpt lat="45.57174" lon="6.68443">
        <ele>1023.799987793</ele>
        <time>2012-04-29T10:01:21Z</time>
      </trkpt>
      <trkpt lat="45.57164" lon="6.6841">
        <ele>1019.200012207</ele>
        <time>2012-04-29T10:01:30Z</time>
      </trkpt>
      <trkpt lat="45.57154" lon="6.68396">
        <ele>1016</ele>
        <time>2012-04-29T10:01:35Z</time>
      </trkpt>
      <trkpt lat="45.57142" lon="6.68371">
        <ele>1012.4000244141</ele>
        <time>2012-04-29T10:01:43Z</time>
      </trkpt>
      <trkpt lat="45.57132" lon="6.68349">
        <ele>1010</ele>
        <time>2012-04-29T10:01:50Z</time>
      </trkpt>
      <trkpt lat="45.57127" lon="6.6832">
        <ele>1009.4000244141</ele>
        <time>2012-04-29T10:01:58Z</time>
      </trkpt>
      <trkpt lat="45.57121" lon="6.68312">
        <ele>1007.5999755859</ele>
        <time>2012-04-29T10:02:03Z</time>
      </trkpt>
      <trkpt lat="45.57116" lon="6.68341">
        <ele>1004.200012207</ele>
        <time>2012-04-29T10:02:11Z</time>
      </trkpt>
      <trkpt lat="45.57112" lon="6.68353">
        <ele>1001.799987793</ele>
        <time>2012-04-29T10:02:16Z</time>
      </trkpt>
      <trkpt lat="45.57097" lon="6.6835">
        <ele>996</ele>
        <time>2012-04-29T10:02:22Z</time>
      </trkpt>
      <trkpt lat="45.57086" lon="6.68353">
        <ele>991.40002441406</ele>
        <time>2012-04-29T10:02:27Z</time>
      </trkpt>
      <trkpt lat="45.57069" lon="6.68347">
        <ele>986.79998779297</ele>
        <time>2012-04-29T10:02:34Z</time>
      </trkpt>
      <trkpt lat="45.57061" lon="6.68346">
        <ele>984.20001220703</ele>
        <time>2012-04-29T10:02:40Z</time>
      </trkpt>
      <trkpt lat="45.5706" lon="6.68368">
        <ele>982.40002441406</ele>
        <time>2012-04-29T10:02:46Z</time>
      </trkpt>
      <trkpt lat="45.57056" lon="6.68385">
        <ele>980</ele>
        <time>2012-04-29T10:02:52Z</time>
      </trkpt>
      <trkpt lat="45.57035" lon="6.6839">
        <ele>973</ele>
        <time>2012-04-29T10:03:00Z</time>
      </trkpt>
      <trkpt lat="45.57025" lon="6.6839">
        <ele>970</ele>
        <time>2012-04-29T10:03:05Z</time>
      </trkpt>
      <trkpt lat="45.57017" lon="6.6837">
        <ele>969.20001220703</ele>
        <time>2012-04-29T10:03:14Z</time>
      </trkpt>
      <trkpt lat="45.57001" lon="6.68341">
        <ele>966.79998779297</ele>
        <time>2012-04-29T10:03:24Z</time>
      </trkpt>
      <trkpt lat="45.56988" lon="6.68311">
        <ele>962.59997558594</ele>
        <time>2012-04-29T10:03:32Z</time>
      </trkpt>
      <trkpt lat="45.56984" lon="6.68279">
        <ele>960.59997558594</ele>
        <time>2012-04-29T10:03:39Z</time>
      </trkpt>
      <trkpt lat="45.56967" lon="6.68267">
        <ele>955.20001220703</ele>
        <time>2012-04-29T10:03:52Z</time>
      </trkpt>
      <trkpt lat="45.56969" lon="6.68295">
        <ele>956.40002441406</ele>
        <time>2012-04-29T10:04:00Z</time>
      </trkpt>
      <trkpt lat="45.56978" lon="6.68333">
        <ele>960</ele>
        <time>2012-04-29T10:04:11Z</time>
      </trkpt>
      <trkpt lat="45.56974" lon="6.68348">
        <ele>957</ele>
        <time>2012-04-29T10:04:18Z</time>
      </trkpt>
      <trkpt lat="45.56957" lon="6.6835">
        <ele>951.40002441406</ele>
        <time>2012-04-29T10:04:23Z</time>
      </trkpt>
      <trkpt lat="45.56936" lon="6.68354">
        <ele>944.40002441406</ele>
        <time>2012-04-29T10:04:31Z</time>
      </trkpt>
      <trkpt lat="45.5692" lon="6.6836">
        <ele>938.40002441406</ele>
        <time>2012-04-29T10:04:38Z</time>
      </trkpt>
      <trkpt lat="45.56911" lon="6.68339">
        <ele>937.40002441406</ele>
        <time>2012-04-29T10:04:46Z</time>
      </trkpt>
      <trkpt lat="45.56899" lon="6.68304">
        <ele>933.40002441406</ele>
        <time>2012-04-29T10:04:56Z</time>
      </trkpt>
      <trkpt lat="45.56903" lon="6.68264">
        <ele>934.40002441406</ele>
        <time>2012-04-29T10:05:09Z</time>
      </trkpt>
      <trkpt lat="45.56907" lon="6.68236">
        <ele>935</ele>
        <time>2012-04-29T10:05:23Z</time>
      </trkpt>
      <trkpt lat="45.5693" lon="6.68199">
        <ele>941.20001220703</ele>
        <time>2012-04-29T10:05:38Z</time>
      </trkpt>
      <trkpt lat="45.56963" lon="6.68176">
        <ele>950</ele>
        <time>2012-04-29T10:05:54Z</time>
      </trkpt>
      <trkpt lat="45.56958" lon="6.6815">
        <ele>949</ele>
        <time>2012-04-29T10:06:05Z</time>
      </trkpt>
      <trkpt lat="45.56933" lon="6.68137">
        <ele>942.40002441406</ele>
        <time>2012-04-29T10:06:16Z</time>
      </trkpt>
      <trkpt lat="45.56905" lon="6.68083">
        <ele>937</ele>
        <time>2012-04-29T10:06:35Z</time>
      </trkpt>
      <trkpt lat="45.56878" lon="6.68043">
        <ele>930.79998779297</ele>
        <time>2012-04-29T10:06:48Z</time>
      </trkpt>
      <trkpt lat="45.56858" lon="6.67992">
        <ele>927.79998779297</ele>
        <time>2012-04-29T10:07:03Z</time>
      </trkpt>
      <trkpt lat="45.56851" lon="6.67942">
        <ele>929</ele>
        <time>2012-04-29T10:07:15Z</time>
      </trkpt>
      <trkpt lat="45.56821" lon="6.67931">
        <ele>920.20001220703</ele>
        <time>2012-04-29T10:07:26Z</time>
      </trkpt>
      <trkpt lat="45.56813" lon="6.67912">
        <ele>919.59997558594</ele>
        <time>2012-04-29T10:07:32Z</time>
      </trkpt>
      <trkpt lat="45.56801" lon="6.67873">
        <ele>921.79998779297</ele>
        <time>2012-04-29T10:07:47Z</time>
      </trkpt>
      <trkpt lat="45.56789" lon="6.67833">
        <ele>924.40002441406</ele>
        <time>2012-04-29T10:07:58Z</time>
      </trkpt>
      <trkpt lat="45.56768" lon="6.67811">
        <ele>925.40002441406</ele>
        <time>2012-04-29T10:08:08Z</time>
      </trkpt>
      <trkpt lat="45.5672" lon="6.6777">
        <ele>918.40002441406</ele>
        <time>2012-04-29T10:08:31Z</time>
      </trkpt>
      <trkpt lat="45.56696" lon="6.67738">
        <ele>912.79998779297</ele>
        <time>2012-04-29T10:08:45Z</time>
      </trkpt>
      <trkpt lat="45.56698" lon="6.67688">
        <ele>917.79998779297</ele>
        <time>2012-04-29T10:08:59Z</time>
      </trkpt>
      <trkpt lat="45.56694" lon="6.67626">
        <ele>917.20001220703</ele>
        <time>2012-04-29T10:09:15Z</time>
      </trkpt>
      <trkpt lat="45.5669" lon="6.67528">
        <ele>915.59997558594</ele>
        <time>2012-04-29T10:09:41Z</time>
      </trkpt>
      <trkpt lat="45.56685" lon="6.67489">
        <ele>914.40002441406</ele>
        <time>2012-04-29T10:09:51Z</time>
      </trkpt>
      <trkpt lat="45.56685" lon="6.67466">
        <ele>914.20001220703</ele>
        <time>2012-04-29T10:09:58Z</time>
      </trkpt>
      <trkpt lat="45.56682" lon="6.67454">
        <ele>913</ele>
        <time>2012-04-29T10:10:17Z</time>
      </trkpt>
      <trkpt lat="45.56673" lon="6.67429">
        <ele>908.79998779297</ele>
        <time>2012-04-29T10:10:25Z</time>
      </trkpt>
      <trkpt lat="45.56662" lon="6.67386">
        <ele>906.79998779297</ele>
        <time>2012-04-29T10:10:36Z</time>
      </trkpt>
      <trkpt lat="45.56651" lon="6.67356">
        <ele>904.59997558594</ele>
        <time>2012-04-29T10:10:45Z</time>
      </trkpt>
      <trkpt lat="45.56627" lon="6.67315">
        <ele>899.40002441406</ele>
        <time>2012-04-29T10:10:58Z</time>
      </trkpt>
      <trkpt lat="45.56591" lon="6.67265">
        <ele>894</ele>
        <time>2012-04-29T10:11:16Z</time>
      </trkpt>
      <trkpt lat="45.56578" lon="6.67239">
        <ele>893.79998779297</ele>
        <time>2012-04-29T10:11:29Z</time>
      </trkpt>
      <trkpt lat="45.56572" lon="6.67229">
        <ele>893</ele>
        <time>2012-04-29T10:11:37Z</time>
      </trkpt>
      <trkpt lat="45.56563" lon="6.67209">
        <ele>893</ele>
        <time>2012-04-29T10:11:51Z</time>
      </trkpt>
      <trkpt lat="45.56534" lon="6.67165">
        <ele>891</ele>
        <time>2012-04-29T10:12:10Z</time>
      </trkpt>
      <trkpt lat="45.56506" lon="6.67123">
        <ele>888.40002441406</ele>
        <time>2012-04-29T10:12:28Z</time>
      </trkpt>
      <trkpt lat="45.56472" lon="6.67073">
        <ele>883.40002441406</ele>
        <time>2012-04-29T10:12:49Z</time>
      </trkpt>
      <trkpt lat="45.56445" lon="6.67015">
        <ele>883.79998779297</ele>
        <time>2012-04-29T10:13:09Z</time>
      </trkpt>
      <trkpt lat="45.56422" lon="6.66963">
        <ele>882.79998779297</ele>
        <time>2012-04-29T10:13:25Z</time>
      </trkpt>
      <trkpt lat="45.56398" lon="6.66908">
        <ele>879.20001220703</ele>
        <time>2012-04-29T10:13:44Z</time>
      </trkpt>
      <trkpt lat="45.56381" lon="6.66845">
        <ele>876</ele>
        <time>2012-04-29T10:14:03Z</time>
      </trkpt>
      <trkpt lat="45.56375" lon="6.66798">
        <ele>875.40002441406</ele>
        <time>2012-04-29T10:14:16Z</time>
      </trkpt>
      <trkpt lat="45.56365" lon="6.66742">
        <ele>873</ele>
        <time>2012-04-29T10:14:31Z</time>
      </trkpt>
      <trkpt lat="45.56356" lon="6.66705">
        <ele>869.59997558594</ele>
        <time>2012-04-29T10:14:41Z</time>
      </trkpt>
      <trkpt lat="45.56348" lon="6.66675">
        <ele>866.20001220703</ele>
        <time>2012-04-29T10:14:49Z</time>
      </trkpt>
      <trkpt lat="45.56336" lon="6.66644">
        <ele>862.59997558594</ele>
        <time>2012-04-29T10:14:58Z</time>
      </trkpt>
      <trkpt lat="45.56323" lon="6.66613">
        <ele>860.20001220703</ele>
        <time>2012-04-29T10:15:08Z</time>
      </trkpt>
      <trkpt lat="45.56314" lon="6.66593">
        <ele>859</ele>
        <time>2012-04-29T10:15:25Z</time>
      </trkpt>
      <trkpt lat="45.56306" lon="6.6657">
        <ele>858</ele>
        <time>2012-04-29T10:15:34Z</time>
      </trkpt>
      <trkpt lat="45.56289" lon="6.66534">
        <ele>855.40002441406</ele>
        <time>2012-04-29T10:15:46Z</time>
      </trkpt>
      <trkpt lat="45.56272" lon="6.66498">
        <ele>852.59997558594</ele>
        <time>2012-04-29T10:15:58Z</time>
      </trkpt>
      <trkpt lat="45.56254" lon="6.66459">
        <ele>849.20001220703</ele>
        <time>2012-04-29T10:16:10Z</time>
      </trkpt>
      <trkpt lat="45.56229" lon="6.66426">
        <ele>844.59997558594</ele>
        <time>2012-04-29T10:16:23Z</time>
      </trkpt>
      <trkpt lat="45.56206" lon="6.66399">
        <ele>841.40002441406</ele>
        <time>2012-04-29T10:16:36Z</time>
      </trkpt>
      <trkpt lat="45.56196" lon="6.66381">
        <ele>841</ele>
        <time>2012-04-29T10:16:48Z</time>
      </trkpt>
      <trkpt lat="45.56175" lon="6.66367">
        <ele>838.59997558594</ele>
        <time>2012-04-29T10:16:59Z</time>
      </trkpt>
      <trkpt lat="45.56169" lon="6.66358">
        <ele>838.59997558594</ele>
        <time>2012-04-29T10:17:03Z</time>
      </trkpt>
      <trkpt lat="45.56153" lon="6.66316">
        <ele>837.20001220703</ele>
        <time>2012-04-29T10:17:16Z</time>
      </trkpt>
      <trkpt lat="45.56148" lon="6.6625">
        <ele>839.79998779297</ele>
        <time>2012-04-29T10:17:35Z</time>
      </trkpt>
      <trkpt lat="45.56162" lon="6.66199">
        <ele>843.59997558594</ele>
        <time>2012-04-29T10:17:53Z</time>
      </trkpt>
      <trkpt lat="45.56163" lon="6.66152">
        <ele>842.59997558594</ele>
        <time>2012-04-29T10:18:09Z</time>
      </trkpt>
      <trkpt lat="45.5616" lon="6.66095">
        <ele>840.20001220703</ele>
        <time>2012-04-29T10:18:27Z</time>
      </trkpt>
      <trkpt lat="45.56146" lon="6.66068">
        <ele>837.59997558594</ele>
        <time>2012-04-29T10:18:37Z</time>
      </trkpt>
      <trkpt lat="45.56132" lon="6.66048">
        <ele>835</ele>
        <time>2012-04-29T10:18:44Z</time>
      </trkpt>
      <trkpt lat="45.56112" lon="6.66026">
        <ele>831.40002441406</ele>
        <time>2012-04-29T10:18:54Z</time>
      </trkpt>
      <trkpt lat="45.56082" lon="6.65999">
        <ele>825.79998779297</ele>
        <time>2012-04-29T10:19:07Z</time>
      </trkpt>
      <trkpt lat="45.56067" lon="6.6598">
        <ele>822.20001220703</ele>
        <time>2012-04-29T10:19:14Z</time>
      </trkpt>
      <trkpt lat="45.56054" lon="6.65963">
        <ele>818.79998779297</ele>
        <time>2012-04-29T10:19:21Z</time>
      </trkpt>
      <trkpt lat="45.56043" lon="6.65955">
        <ele>816</ele>
        <time>2012-04-29T10:19:26Z</time>
      </trkpt>
      <trkpt lat="45.56034" lon="6.65943">
        <ele>813.40002441406</ele>
        <time>2012-04-29T10:19:31Z</time>
      </trkpt>
      <trkpt lat="45.56029" lon="6.65919">
        <ele>811.59997558594</ele>
        <time>2012-04-29T10:19:38Z</time>
      </trkpt>
      <trkpt lat="45.56012" lon="6.6588">
        <ele>806.59997558594</ele>
        <time>2012-04-29T10:19:51Z</time>
      </trkpt>
      <trkpt lat="45.56" lon="6.6586">
        <ele>803.20001220703</ele>
        <time>2012-04-29T10:19:59Z</time>
      </trkpt>
      <trkpt lat="45.55992" lon="6.65849">
        <ele>801</ele>
        <time>2012-04-29T10:20:05Z</time>
      </trkpt>
      <trkpt lat="45.55981" lon="6.65836">
        <ele>797.79998779297</ele>
        <time>2012-04-29T10:20:11Z</time>
      </trkpt>
      <trkpt lat="45.5597" lon="6.6583">
        <ele>794.20001220703</ele>
        <time>2012-04-29T10:20:17Z</time>
      </trkpt>
      <trkpt lat="45.5596" lon="6.65827">
        <ele>791.20001220703</ele>
        <time>2012-04-29T10:20:23Z</time>
      </trkpt>
      <trkpt lat="45.55957" lon="6.65815">
        <ele>789.20001220703</ele>
        <time>2012-04-29T10:20:33Z</time>
      </trkpt>
      <trkpt lat="45.55974" lon="6.65767">
        <ele>789</ele>
        <time>2012-04-29T10:20:50Z</time>
      </trkpt>
      <trkpt lat="45.56007" lon="6.65683">
        <ele>787.20001220703</ele>
        <time>2012-04-29T10:21:17Z</time>
      </trkpt>
      <trkpt lat="45.56017" lon="6.65629">
        <ele>781.20001220703</ele>
        <time>2012-04-29T10:21:32Z</time>
      </trkpt>
      <trkpt lat="45.56028" lon="6.6558">
        <ele>774</ele>
        <time>2012-04-29T10:21:48Z</time>
      </trkpt>
      <trkpt lat="45.56036" lon="6.65569">
        <ele>771.40002441406</ele>
        <time>2012-04-29T10:21:58Z</time>
      </trkpt>
      <trkpt lat="45.56039" lon="6.65565">
        <ele>770.59997558594</ele>
        <time>2012-04-29T10:22:04Z</time>
      </trkpt>
      <trkpt lat="45.56033" lon="6.6556">
        <ele>769</ele>
        <time>2012-04-29T10:22:11Z</time>
      </trkpt>
      <trkpt lat="45.5603" lon="6.6555">
        <ele>766.79998779297</ele>
        <time>2012-04-29T10:22:18Z</time>
      </trkpt>
      <trkpt lat="45.56021" lon="6.65535">
        <ele>763.40002441406</ele>
        <time>2012-04-29T10:22:27Z</time>
      </trkpt>
      <trkpt lat="45.56012" lon="6.65515">
        <ele>759.59997558594</ele>
        <time>2012-04-29T10:22:35Z</time>
      </trkpt>
      <trkpt lat="45.56007" lon="6.65501">
        <ele>757.40002441406</ele>
        <time>2012-04-29T10:22:41Z</time>
      </trkpt>
      <trkpt lat="45.56006" lon="6.65482">
        <ele>751.59997558594</ele>
        <time>2012-04-29T10:22:47Z</time>
      </trkpt>
      <trkpt lat="45.55999" lon="6.65465">
        <ele>746.59997558594</ele>
        <time>2012-04-29T10:22:53Z</time>
      </trkpt>
      <trkpt lat="45.55997" lon="6.65456">
        <ele>743.20001220703</ele>
        <time>2012-04-29T10:22:57Z</time>
      </trkpt>
      <trkpt lat="45.55996" lon="6.65437">
        <ele>737.20001220703</ele>
        <time>2012-04-29T10:23:03Z</time>
      </trkpt>
      <trkpt lat="45.55991" lon="6.65427">
        <ele>733.40002441406</ele>
        <time>2012-04-29T10:23:07Z</time>
      </trkpt>
      <trkpt lat="45.5598" lon="6.65415">
        <ele>729</ele>
        <time>2012-04-29T10:23:13Z</time>
      </trkpt>
      <trkpt lat="45.55963" lon="6.65393">
        <ele>722.79998779297</ele>
        <time>2012-04-29T10:23:22Z</time>
      </trkpt>
      <trkpt lat="45.55943" lon="6.65388">
        <ele>720.40002441406</ele>
        <time>2012-04-29T10:23:30Z</time>
      </trkpt>
      <trkpt lat="45.55933" lon="6.65374">
        <ele>716.79998779297</ele>
        <time>2012-04-29T10:23:38Z</time>
      </trkpt>
      <trkpt lat="45.55927" lon="6.65384">
        <ele>718.40002441406</ele>
        <time>2012-04-29T10:23:45Z</time>
      </trkpt>
      <trkpt lat="45.5592" lon="6.65393">
        <ele>719.59997558594</ele>
        <time>2012-04-29T10:23:53Z</time>
      </trkpt>
      <trkpt lat="45.55911" lon="6.65388">
        <ele>716.79998779297</ele>
        <time>2012-04-29T10:24:01Z</time>
      </trkpt>
      <trkpt lat="45.55905" lon="6.65377">
        <ele>713.20001220703</ele>
        <time>2012-04-29T10:24:06Z</time>
      </trkpt>
      <trkpt lat="45.55905" lon="6.6536">
        <ele>710.40002441406</ele>
        <time>2012-04-29T10:24:13Z</time>
      </trkpt>
      <trkpt lat="45.55907" lon="6.65346">
        <ele>708.40002441406</ele>
        <time>2012-04-29T10:24:22Z</time>
      </trkpt>
      <trkpt lat="45.55903" lon="6.65343">
        <ele>707.20001220703</ele>
        <time>2012-04-29T10:24:28Z</time>
      </trkpt>
      <trkpt lat="45.5592" lon="6.6532">
        <ele>707.20001220703</ele>
        <time>2012-04-29T10:24:41Z</time>
      </trkpt>
      <trkpt lat="45.55946" lon="6.65301">
        <ele>708</ele>
        <time>2012-04-29T10:24:54Z</time>
      </trkpt>
      <trkpt lat="45.55953" lon="6.65269">
        <ele>707.40002441406</ele>
        <time>2012-04-29T10:25:06Z</time>
      </trkpt>
      <trkpt lat="45.55928" lon="6.65264">
        <ele>704.40002441406</ele>
        <time>2012-04-29T10:25:16Z</time>
      </trkpt>
      <trkpt lat="45.55907" lon="6.65262">
        <ele>701.79998779297</ele>
        <time>2012-04-29T10:25:24Z</time>
      </trkpt>
      <trkpt lat="45.55885" lon="6.65255">
        <ele>699.20001220703</ele>
        <time>2012-04-29T10:25:33Z</time>
      </trkpt>
      <trkpt lat="45.55865" lon="6.65262">
        <ele>697.40002441406</ele>
        <time>2012-04-29T10:25:44Z</time>
      </trkpt>
      <trkpt lat="45.55861" lon="6.65283">
        <ele>697.20001220703</ele>
        <time>2012-04-29T10:25:50Z</time>
      </trkpt>
      <trkpt lat="45.55839" lon="6.65321">
        <ele>694</ele>
        <time>2012-04-29T10:26:05Z</time>
      </trkpt>
      <trkpt lat="45.55821" lon="6.65337">
        <ele>691.79998779297</ele>
        <time>2012-04-29T10:26:16Z</time>
      </trkpt>
      <trkpt lat="45.55814" lon="6.65373">
        <ele>691.20001220703</ele>
        <time>2012-04-29T10:26:27Z</time>
      </trkpt>
      <trkpt lat="45.55805" lon="6.65406">
        <ele>690</ele>
        <time>2012-04-29T10:26:39Z</time>
      </trkpt>
      <trkpt lat="45.55802" lon="6.65415">
        <ele>689.59997558594</ele>
        <time>2012-04-29T10:26:50Z</time>
      </trkpt>
      <trkpt lat="45.558" lon="6.65419">
        <ele>689.20001220703</ele>
        <time>2012-04-29T10:27:08Z</time>
      </trkpt>
      <trkpt lat="45.55798" lon="6.65421">
        <ele>689</ele>
        <time>2012-04-29T10:27:28Z</time>
      </trkpt>
      <trkpt lat="45.55794" lon="6.65425">
        <ele>688.40002441406</ele>
        <time>2012-04-29T10:27:50Z</time>
      </trkpt>
      <trkpt lat="45.55775" lon="6.65429">
        <ele>685.59997558594</ele>
        <time>2012-04-29T10:28:05Z</time>
      </trkpt>
      <trkpt lat="45.5576" lon="6.65438">
        <ele>683.40002441406</ele>
        <time>2012-04-29T10:28:14Z</time>
      </trkpt>
      <trkpt lat="45.55751" lon="6.65457">
        <ele>682.20001220703</ele>
        <time>2012-04-29T10:28:22Z</time>
      </trkpt>
      <trkpt lat="45.55751" lon="6.65484">
        <ele>682.20001220703</ele>
        <time>2012-04-29T10:28:29Z</time>
      </trkpt>
      <trkpt lat="45.55749" lon="6.65526">
        <ele>682.40002441406</ele>
        <time>2012-04-29T10:28:40Z</time>
      </trkpt>
      <trkpt lat="45.55742" lon="6.65574">
        <ele>682.59997558594</ele>
        <time>2012-04-29T10:28:55Z</time>
      </trkpt>
      <trkpt lat="45.55736" lon="6.65599">
        <ele>683.20001220703</ele>
        <time>2012-04-29T10:29:03Z</time>
      </trkpt>
      <trkpt lat="45.55726" lon="6.6563">
        <ele>683.20001220703</ele>
        <time>2012-04-29T10:29:13Z</time>
      </trkpt>
      <trkpt lat="45.55699" lon="6.65678">
        <ele>681.40002441406</ele>
        <time>2012-04-29T10:29:32Z</time>
      </trkpt>
      <trkpt lat="45.55681" lon="6.65681">
        <ele>677.20001220703</ele>
        <time>2012-04-29T10:29:42Z</time>
      </trkpt>
      <trkpt lat="45.55673" lon="6.65723">
        <ele>679.59997558594</ele>
        <time>2012-04-29T10:29:54Z</time>
      </trkpt>
      <trkpt lat="45.55667" lon="6.65761">
        <ele>679.79998779297</ele>
        <time>2012-04-29T10:30:05Z</time>
      </trkpt>
      <trkpt lat="45.55661" lon="6.65818">
        <ele>677.20001220703</ele>
        <time>2012-04-29T10:30:21Z</time>
      </trkpt>
      <trkpt lat="45.55661" lon="6.65864">
        <ele>676.40002441406</ele>
        <time>2012-04-29T10:30:33Z</time>
      </trkpt>
      <trkpt lat="45.55663" lon="6.65921">
        <ele>676</ele>
        <time>2012-04-29T10:30:49Z</time>
      </trkpt>
      <trkpt lat="45.55659" lon="6.65982">
        <ele>672.59997558594</ele>
        <time>2012-04-29T10:31:08Z</time>
      </trkpt>
      <trkpt lat="45.55657" lon="6.66026">
        <ele>671</ele>
        <time>2012-04-29T10:31:20Z</time>
      </trkpt>
      <trkpt lat="45.55661" lon="6.66071">
        <ele>670.59997558594</ele>
        <time>2012-04-29T10:31:33Z</time>
      </trkpt>
      <trkpt lat="45.55665" lon="6.66095">
        <ele>670</ele>
        <time>2012-04-29T10:31:41Z</time>
      </trkpt>
      <trkpt lat="45.55679" lon="6.66147">
        <ele>673.20001220703</ele>
        <time>2012-04-29T10:31:58Z</time>
      </trkpt>
      <trkpt lat="45.55691" lon="6.66189">
        <ele>675</ele>
        <time>2012-04-29T10:32:12Z</time>
      </trkpt>
      <trkpt lat="45.55699" lon="6.66233">
        <ele>673.40002441406</ele>
        <time>2012-04-29T10:32:25Z</time>
      </trkpt>
      <trkpt lat="45.55711" lon="6.66282">
        <ele>670.79998779297</ele>
        <time>2012-04-29T10:32:41Z</time>
      </trkpt>
      <trkpt lat="45.55722" lon="6.66321">
        <ele>667.40002441406</ele>
        <time>2012-04-29T10:32:54Z</time>
      </trkpt>
      <trkpt lat="45.55731" lon="6.66367">
        <ele>664.79998779297</ele>
        <time>2012-04-29T10:33:10Z</time>
      </trkpt>
      <trkpt lat="45.55723" lon="6.66381">
        <ele>664.20001220703</ele>
        <time>2012-04-29T10:33:18Z</time>
      </trkpt>
      <trkpt lat="45.55716" lon="6.66411">
        <ele>663.40002441406</ele>
        <time>2012-04-29T10:33:34Z</time>
      </trkpt>
      <trkpt lat="45.5572" lon="6.66405">
        <ele>663.40002441406</ele>
        <time>2012-04-29T10:33:57Z</time>
      </trkpt>
      <trkpt lat="45.5572" lon="6.66415">
        <ele>663.20001220703</ele>
        <time>2012-04-29T10:34:13Z</time>
      </trkpt>
      <trkpt lat="45.55741" lon="6.66462">
        <ele>663.59997558594</ele>
        <time>2012-04-29T10:34:32Z</time>
      </trkpt>
      <trkpt lat="45.55772" lon="6.66513">
        <ele>664.79998779297</ele>
        <time>2012-04-29T10:34:55Z</time>
      </trkpt>
      <trkpt lat="45.55793" lon="6.66549">
        <ele>665.59997558594</ele>
        <time>2012-04-29T10:35:10Z</time>
      </trkpt>
      <trkpt lat="45.55815" lon="6.66583">
        <ele>666</ele>
        <time>2012-04-29T10:35:25Z</time>
      </trkpt>
      <trkpt lat="45.55841" lon="6.66618">
        <ele>667.40002441406</ele>
        <time>2012-04-29T10:35:41Z</time>
      </trkpt>
      <trkpt lat="45.55867" lon="6.66644">
        <ele>670.59997558594</ele>
        <time>2012-04-29T10:35:54Z</time>
      </trkpt>
      <trkpt lat="45.55893" lon="6.66685">
        <ele>671.79998779297</ele>
        <time>2012-04-29T10:36:10Z</time>
      </trkpt>
      <trkpt lat="45.55902" lon="6.66708">
        <ele>671.20001220703</ele>
        <time>2012-04-29T10:36:17Z</time>
      </trkpt>
      <trkpt lat="45.55913" lon="6.66752">
        <ele>669.20001220703</ele>
        <time>2012-04-29T10:36:30Z</time>
      </trkpt>
      <trkpt lat="45.55923" lon="6.66802">
        <ele>673.20001220703</ele>
        <time>2012-04-29T10:36:45Z</time>
      </trkpt>
      <trkpt lat="45.55934" lon="6.66843">
        <ele>676.79998779297</ele>
        <time>2012-04-29T10:36:57Z</time>
      </trkpt>
      <trkpt lat="45.55947" lon="6.66878">
        <ele>678.79998779297</ele>
        <time>2012-04-29T10:37:08Z</time>
      </trkpt>
      <trkpt lat="45.55965" lon="6.66921">
        <ele>680</ele>
        <time>2012-04-29T10:37:23Z</time>
      </trkpt>
      <trkpt lat="45.55988" lon="6.66966">
        <ele>678.20001220703</ele>
        <time>2012-04-29T10:37:39Z</time>
      </trkpt>
      <trkpt lat="45.55998" lon="6.66994">
        <ele>675.59997558594</ele>
        <time>2012-04-29T10:37:48Z</time>
      </trkpt>
      <trkpt lat="45.56011" lon="6.6703">
        <ele>679.40002441406</ele>
        <time>2012-04-29T10:38:00Z</time>
      </trkpt>
      <trkpt lat="45.56036" lon="6.67093">
        <ele>685.40002441406</ele>
        <time>2012-04-29T10:38:19Z</time>
      </trkpt>
      <trkpt lat="45.56043" lon="6.67125">
        <ele>685.79998779297</ele>
        <time>2012-04-29T10:38:28Z</time>
      </trkpt>
      <trkpt lat="45.56038" lon="6.67175">
        <ele>683.59997558594</ele>
        <time>2012-04-29T10:38:43Z</time>
      </trkpt>
      <trkpt lat="45.56034" lon="6.67231">
        <ele>684.20001220703</ele>
        <time>2012-04-29T10:39:01Z</time>
      </trkpt>
      <trkpt lat="45.56041" lon="6.67267">
        <ele>685.20001220703</ele>
        <time>2012-04-29T10:39:12Z</time>
      </trkpt>
      <trkpt lat="45.56047" lon="6.6729">
        <ele>685.59997558594</ele>
        <time>2012-04-29T10:39:19Z</time>
      </trkpt>
      <trkpt lat="45.5605" lon="6.67313">
        <ele>685.79998779297</ele>
        <time>2012-04-29T10:39:26Z</time>
      </trkpt>
      <trkpt lat="45.56062" lon="6.67358">
        <ele>685.79998779297</ele>
        <time>2012-04-29T10:39:41Z</time>
      </trkpt>
      <trkpt lat="45.56068" lon="6.67386">
        <ele>685.79998779297</ele>
        <time>2012-04-29T10:39:50Z</time>
      </trkpt>
      <trkpt lat="45.56079" lon="6.67437">
        <ele>685.40002441406</ele>
        <time>2012-04-29T10:40:08Z</time>
      </trkpt>
      <trkpt lat="45.56088" lon="6.67465">
        <ele>686.20001220703</ele>
        <time>2012-04-29T10:40:18Z</time>
      </trkpt>
      <trkpt lat="45.56105" lon="6.67513">
        <ele>687.79998779297</ele>
        <time>2012-04-29T10:40:34Z</time>
      </trkpt>
      <trkpt lat="45.56124" lon="6.67559">
        <ele>688</ele>
        <time>2012-04-29T10:40:52Z</time>
      </trkpt>
      <trkpt lat="45.56135" lon="6.67585">
        <ele>687.20001220703</ele>
        <time>2012-04-29T10:41:08Z</time>
      </trkpt>
      <trkpt lat="45.56137" lon="6.67593">
        <ele>687.79998779297</ele>
        <time>2012-04-29T10:41:18Z</time>
      </trkpt>
      <trkpt lat="45.56133" lon="6.67591">
        <ele>688</ele>
        <time>2012-04-29T10:41:30Z</time>
      </trkpt>
      <trkpt lat="45.56124" lon="6.67594">
        <ele>689.20001220703</ele>
        <time>2012-04-29T10:41:46Z</time>
      </trkpt>
      <trkpt lat="45.56111" lon="6.67596">
        <ele>690.79998779297</ele>
        <time>2012-04-29T10:42:01Z</time>
      </trkpt>
      <trkpt lat="45.56103" lon="6.6759">
        <ele>691</ele>
        <time>2012-04-29T10:42:15Z</time>
      </trkpt>
      <trkpt lat="45.56096" lon="6.67583">
        <ele>690.79998779297</ele>
        <time>2012-04-29T10:42:27Z</time>
      </trkpt>
      <trkpt lat="45.56089" lon="6.67577">
        <ele>691.20001220703</ele>
        <time>2012-04-29T10:42:39Z</time>
      </trkpt>
      <trkpt lat="45.56083" lon="6.67571">
        <ele>691.20001220703</ele>
        <time>2012-04-29T10:42:50Z</time>
      </trkpt>
      <trkpt lat="45.56072" lon="6.67562">
        <ele>693.20001220703</ele>
        <time>2012-04-29T10:43:03Z</time>
      </trkpt>
      <trkpt lat="45.56048" lon="6.67544">
        <ele>697.20001220703</ele>
        <time>2012-04-29T10:43:28Z</time>
      </trkpt>
      <trkpt lat="45.56034" lon="6.6755">
        <ele>700.59997558594</ele>
        <time>2012-04-29T10:43:44Z</time>
      </trkpt>
      <trkpt lat="45.56024" lon="6.67559">
        <ele>703.40002441406</ele>
        <time>2012-04-29T10:43:57Z</time>
      </trkpt>
      <trkpt lat="45.56003" lon="6.67576">
        <ele>708.79998779297</ele>
        <time>2012-04-29T10:44:19Z</time>
      </trkpt>
      <trkpt lat="45.55979" lon="6.6759">
        <ele>713.20001220703</ele>
        <time>2012-04-29T10:44:44Z</time>
      </trkpt>
      <trkpt lat="45.5596" lon="6.67596">
        <ele>716.20001220703</ele>
        <time>2012-04-29T10:45:05Z</time>
      </trkpt>
      <trkpt lat="45.55952" lon="6.67598">
        <ele>717.40002441406</ele>
        <time>2012-04-29T10:45:14Z</time>
      </trkpt>
      <trkpt lat="45.55943" lon="6.67604">
        <ele>719.20001220703</ele>
        <time>2012-04-29T10:45:25Z</time>
      </trkpt>
      <trkpt lat="45.55934" lon="6.6761">
        <ele>720.79998779297</ele>
        <time>2012-04-29T10:45:36Z</time>
      </trkpt>
      <trkpt lat="45.55925" lon="6.67621">
        <ele>723</ele>
        <time>2012-04-29T10:45:51Z</time>
      </trkpt>
      <trkpt lat="45.5592" lon="6.67629">
        <ele>724.40002441406</ele>
        <time>2012-04-29T10:46:01Z</time>
      </trkpt>
      <trkpt lat="45.55909" lon="6.67641">
        <ele>726.40002441406</ele>
        <time>2012-04-29T10:46:15Z</time>
      </trkpt>
      <trkpt lat="45.55894" lon="6.67655">
        <ele>728.59997558594</ele>
        <time>2012-04-29T10:46:29Z</time>
      </trkpt>
      <trkpt lat="45.55884" lon="6.67669">
        <ele>730.59997558594</ele>
        <time>2012-04-29T10:46:41Z</time>
      </trkpt>
      <trkpt lat="45.55872" lon="6.67688">
        <ele>733</ele>
        <time>2012-04-29T10:46:56Z</time>
      </trkpt>
      <trkpt lat="45.55863" lon="6.67705">
        <ele>735</ele>
        <time>2012-04-29T10:47:10Z</time>
      </trkpt>
      <trkpt lat="45.55857" lon="6.67719">
        <ele>736.79998779297</ele>
        <time>2012-04-29T10:47:19Z</time>
      </trkpt>
      <trkpt lat="45.55851" lon="6.67736">
        <ele>738.79998779297</ele>
        <time>2012-04-29T10:47:30Z</time>
      </trkpt>
      <trkpt lat="45.55845" lon="6.6775">
        <ele>740.79998779297</ele>
        <time>2012-04-29T10:47:40Z</time>
      </trkpt>
      <trkpt lat="45.55839" lon="6.67767">
        <ele>743</ele>
        <time>2012-04-29T10:47:52Z</time>
      </trkpt>
      <trkpt lat="45.55834" lon="6.67781">
        <ele>744.79998779297</ele>
        <time>2012-04-29T10:48:04Z</time>
      </trkpt>
      <trkpt lat="45.55832" lon="6.67793">
        <ele>746.20001220703</ele>
        <time>2012-04-29T10:48:16Z</time>
      </trkpt>
      <trkpt lat="45.55821" lon="6.6782">
        <ele>749.40002441406</ele>
        <time>2012-04-29T10:48:35Z</time>
      </trkpt>
      <trkpt lat="45.55817" lon="6.6783">
        <ele>750.40002441406</ele>
        <time>2012-04-29T10:48:43Z</time>
      </trkpt>
      <trkpt lat="45.55812" lon="6.67846">
        <ele>752</ele>
        <time>2012-04-29T10:48:53Z</time>
      </trkpt>
      <trkpt lat="45.55807" lon="6.67864">
        <ele>753.40002441406</ele>
        <time>2012-04-29T10:49:05Z</time>
      </trkpt>
      <trkpt lat="45.55803" lon="6.67873">
        <ele>754.40002441406</ele>
        <time>2012-04-29T10:49:13Z</time>
      </trkpt>
      <trkpt lat="45.55796" lon="6.67896">
        <ele>756.59997558594</ele>
        <time>2012-04-29T10:49:29Z</time>
      </trkpt>
      <trkpt lat="45.55789" lon="6.67918">
        <ele>758.79998779297</ele>
        <time>2012-04-29T10:49:46Z</time>
      </trkpt>
      <trkpt lat="45.55785" lon="6.67926">
        <ele>759.79998779297</ele>
        <time>2012-04-29T10:49:53Z</time>
      </trkpt>
      <trkpt lat="45.55781" lon="6.67942">
        <ele>761.79998779297</ele>
        <time>2012-04-29T10:50:07Z</time>
      </trkpt>
      <trkpt lat="45.55775" lon="6.6796">
        <ele>764</ele>
        <time>2012-04-29T10:50:19Z</time>
      </trkpt>
      <trkpt lat="45.55768" lon="6.67978">
        <ele>766.40002441406</ele>
        <time>2012-04-29T10:50:34Z</time>
      </trkpt>
      <trkpt lat="45.55764" lon="6.67991">
        <ele>768</ele>
        <time>2012-04-29T10:50:50Z</time>
      </trkpt>
      <trkpt lat="45.55748" lon="6.67992">
        <ele>769.40002441406</ele>
        <time>2012-04-29T10:51:13Z</time>
      </trkpt>
      <trkpt lat="45.55706" lon="6.6797">
        <ele>769</ele>
        <time>2012-04-29T10:51:35Z</time>
      </trkpt>
      <trkpt lat="45.55683" lon="6.67971">
        <ele>770.20001220703</ele>
        <time>2012-04-29T10:51:47Z</time>
      </trkpt>
      <trkpt lat="45.55657" lon="6.67947">
        <ele>768.79998779297</ele>
        <time>2012-04-29T10:52:02Z</time>
      </trkpt>
      <trkpt lat="45.55611" lon="6.67919">
        <ele>768.59997558594</ele>
        <time>2012-04-29T10:52:25Z</time>
      </trkpt>
      <trkpt lat="45.55568" lon="6.67892">
        <ele>769.79998779297</ele>
        <time>2012-04-29T10:52:45Z</time>
      </trkpt>
      <trkpt lat="45.55544" lon="6.67867">
        <ele>770.40002441406</ele>
        <time>2012-04-29T10:52:58Z</time>
      </trkpt>
      <trkpt lat="45.55527" lon="6.67851">
        <ele>770.59997558594</ele>
        <time>2012-04-29T10:53:07Z</time>
      </trkpt>
      <trkpt lat="45.55507" lon="6.67808">
        <ele>770.59997558594</ele>
        <time>2012-04-29T10:53:24Z</time>
      </trkpt>
      <trkpt lat="45.55499" lon="6.67785">
        <ele>771.20001220703</ele>
        <time>2012-04-29T10:53:38Z</time>
      </trkpt>
      <trkpt lat="45.55488" lon="6.67769">
        <ele>773.40002441406</ele>
        <time>2012-04-29T10:53:51Z</time>
      </trkpt>
      <trkpt lat="45.55478" lon="6.67766">
        <ele>775.59997558594</ele>
        <time>2012-04-29T10:54:01Z</time>
      </trkpt>
      <trkpt lat="45.5547" lon="6.67751">
        <ele>776.59997558594</ele>
        <time>2012-04-29T10:54:15Z</time>
      </trkpt>
      <trkpt lat="45.55466" lon="6.67732">
        <ele>777.20001220703</ele>
        <time>2012-04-29T10:54:31Z</time>
      </trkpt>
      <trkpt lat="45.55457" lon="6.6773">
        <ele>779</ele>
        <time>2012-04-29T10:54:44Z</time>
      </trkpt>
      <trkpt lat="45.55449" lon="6.67735">
        <ele>780.59997558594</ele>
        <time>2012-04-29T10:54:57Z</time>
      </trkpt>
    </trkseg>
  </trk>
</gpx>